<?xml version="1.0" encoding="UTF-8" standalone="no" ?>
<gpx xmlns="http://www.topografix.com/GPX/1/1" xmlns:xsi="http://www.w3.org/2001/XMLSchema-instance" xsi:schemaLocation="http://www.topografix.com/GPX/1/1 http://www.topografix.com/GPX/1/1/gpx.xsd" version="1.1" creator="VisuGPX - https://www.visugpx.com">
  <metadata>
    <name>Mühleberg</name>
  </metadata>
  <trk>
    <name><![CDATA[Mühleberg_1]]></name>
    <extensions>
      <line xmlns="http://www.topografix.com/GPX/gpx_style/0/2">
        <color>ff0000</color>
        <width>3</width>
        <dasharray>6</dasharray>
      </line>
    </extensions>
    <trkseg>
      <trkpt lat="46.9851" lon="7.24082">
        <ele>523.6</ele>
        <time>2021-03-25T09:05:00.000Z</time>
      </trkpt>
      <trkpt lat="46.98508" lon="7.24076">
        <ele>523.3</ele>
        <time>2021-03-25T09:05:14.330Z</time>
      </trkpt>
      <trkpt lat="46.9851" lon="7.24082">
        <ele>523.5</ele>
        <time>2021-03-25T09:05:28.660Z</time>
      </trkpt>
      <trkpt lat="46.98535" lon="7.24153">
        <ele>524.3</ele>
        <time>2021-03-25T09:06:19.587Z</time>
      </trkpt>
      <trkpt lat="46.9859" lon="7.24262">
        <ele>524.5</ele>
        <time>2021-03-25T09:07:35.896Z</time>
      </trkpt>
      <trkpt lat="46.98605" lon="7.24295">
        <ele>524.5</ele>
        <time>2021-03-25T09:08:59.452Z</time>
      </trkpt>
      <trkpt lat="46.9862" lon="7.24319">
        <ele>524.3</ele>
        <time>2021-03-25T09:10:09.718Z</time>
      </trkpt>
      <trkpt lat="46.98638" lon="7.24339">
        <ele>524.4</ele>
        <time>2021-03-25T09:10:28.609Z</time>
      </trkpt>
      <trkpt lat="46.98662" lon="7.24385">
        <ele>524.8</ele>
        <time>2021-03-25T09:11:03.545Z</time>
      </trkpt>
      <trkpt lat="46.98673" lon="7.24428">
        <ele>524</ele>
        <time>2021-03-25T09:11:11.793Z</time>
      </trkpt>
      <trkpt lat="46.9867" lon="7.24442">
        <ele>522.8</ele>
        <time>2021-03-25T09:11:43.592Z</time>
      </trkpt>
      <trkpt lat="46.98652" lon="7.24487">
        <ele>519.5</ele>
        <time>2021-03-25T09:13:35.588Z</time>
      </trkpt>
      <trkpt lat="46.98632" lon="7.24502">
        <ele>518.5</ele>
        <time>2021-03-25T09:14:43.486Z</time>
      </trkpt>
      <trkpt lat="46.98628" lon="7.24514">
        <ele>518</ele>
        <time>2021-03-25T09:14:45.391Z</time>
        <extensions>
          <visugpx:TrkExtension xmlns:visugpx="https://www.visugpx.com/editgpx/">
            <visugpx:node>98</visugpx:node>
            </visugpx:TrkExtension>
        </extensions>
      </trkpt>
      <trkpt lat="46.98627" lon="7.24506">
        <ele>518.3</ele>
        <time>2021-03-25T09:14:53.452Z</time>
      </trkpt>
      <trkpt lat="46.98629" lon="7.24541">
        <ele>517</ele>
        <time>2021-03-25T09:14:58.205Z</time>
        <extensions>
          <visugpx:TrkExtension xmlns:visugpx="https://www.visugpx.com/editgpx/">
            <visugpx:node>100</visugpx:node>
            </visugpx:TrkExtension>
        </extensions>
      </trkpt>
      <trkpt lat="46.98629" lon="7.24538">
        <ele>517.1</ele>
        <time>2021-03-25T09:15:01.077Z</time>
      </trkpt>
      <trkpt lat="46.98631" lon="7.24581">
        <ele>515.5</ele>
        <time>2021-03-25T09:15:06.902Z</time>
      </trkpt>
      <trkpt lat="46.98693" lon="7.24694">
        <ele>515.5</ele>
        <time>2021-03-25T09:16:26.904Z</time>
      </trkpt>
      <trkpt lat="46.98702" lon="7.2471">
        <ele>515.6</ele>
        <time>2021-03-25T09:16:39.137Z</time>
      </trkpt>
      <trkpt lat="46.98773" lon="7.24794">
        <ele>516.7</ele>
        <time>2021-03-25T09:18:02.083Z</time>
      </trkpt>
      <trkpt lat="46.98781" lon="7.24804">
        <ele>516.9</ele>
        <time>2021-03-25T09:18:12.380Z</time>
        <extensions>
          <visugpx:TrkExtension xmlns:visugpx="https://www.visugpx.com/editgpx/">
            <visugpx:node>1</visugpx:node>
            </visugpx:TrkExtension>
        </extensions>
      </trkpt>
      <trkpt lat="46.98868" lon="7.24919">
        <ele>517.8</ele>
        <time>2021-03-25T09:19:54.289Z</time>
      </trkpt>
      <trkpt lat="46.98883" lon="7.2493">
        <ele>518</ele>
        <time>2021-03-25T09:20:09.516Z</time>
      </trkpt>
      <trkpt lat="46.9892" lon="7.24939">
        <ele>517.5</ele>
        <time>2021-03-25T09:20:20.830Z</time>
      </trkpt>
      <trkpt lat="46.9896" lon="7.24943">
        <ele>510.9</ele>
        <time>2021-03-25T09:20:28.696Z</time>
      </trkpt>
      <trkpt lat="46.99002" lon="7.24932">
        <ele>506.7</ele>
        <time>2021-03-25T09:20:37.065Z</time>
      </trkpt>
      <trkpt lat="46.99021" lon="7.24928">
        <ele>499.7</ele>
        <time>2021-03-25T09:20:40.831Z</time>
      </trkpt>
      <trkpt lat="46.99049" lon="7.24916">
        <ele>489.9</ele>
        <time>2021-03-25T09:20:46.554Z</time>
      </trkpt>
      <trkpt lat="46.99091" lon="7.24903">
        <ele>475.8</ele>
        <time>2021-03-25T09:20:54.975Z</time>
      </trkpt>
      <trkpt lat="46.99112" lon="7.24891">
        <ele>473.6</ele>
        <time>2021-03-25T09:20:59.397Z</time>
      </trkpt>
      <trkpt lat="46.9913" lon="7.24877">
        <ele>471.3</ele>
        <time>2021-03-25T09:21:03.394Z</time>
      </trkpt>
      <trkpt lat="46.99145" lon="7.24856">
        <ele>469.1</ele>
        <time>2021-03-25T09:21:07.463Z</time>
      </trkpt>
      <trkpt lat="46.99148" lon="7.24844">
        <ele>468.9</ele>
        <time>2021-03-25T09:21:09.806Z</time>
      </trkpt>
      <trkpt lat="46.99154" lon="7.24794">
        <ele>470.8</ele>
        <time>2021-03-25T09:22:00.388Z</time>
      </trkpt>
      <trkpt lat="46.99165" lon="7.24739">
        <ele>471.3</ele>
        <time>2021-03-25T09:22:36.200Z</time>
      </trkpt>
      <trkpt lat="46.99171" lon="7.24722">
        <ele>473.9</ele>
        <time>2021-03-25T09:23:16.927Z</time>
      </trkpt>
      <trkpt lat="46.99172" lon="7.24721">
        <ele>474.1</ele>
        <time>2021-03-25T09:23:20.703Z</time>
        <extensions>
          <visugpx:TrkExtension xmlns:visugpx="https://www.visugpx.com/editgpx/">
            <visugpx:node>2</visugpx:node>
            </visugpx:TrkExtension>
        </extensions>
      </trkpt>
      <trkpt lat="46.99178" lon="7.24708">
        <ele>476.1</ele>
        <time>2021-03-25T09:23:54.100Z</time>
      </trkpt>
      <trkpt lat="46.99183" lon="7.24683">
        <ele>480.2</ele>
        <time>2021-03-25T09:24:49.532Z</time>
      </trkpt>
      <trkpt lat="46.99196" lon="7.24642">
        <ele>483.8</ele>
        <time>2021-03-25T09:26:07.025Z</time>
      </trkpt>
      <trkpt lat="46.9921" lon="7.24589">
        <ele>486.2</ele>
        <time>2021-03-25T09:27:06.485Z</time>
      </trkpt>
      <trkpt lat="46.99237" lon="7.24523">
        <ele>485.9</ele>
        <time>2021-03-25T09:27:45.520Z</time>
      </trkpt>
      <trkpt lat="46.99245" lon="7.24506">
        <ele>485.8</ele>
        <time>2021-03-25T09:27:55.796Z</time>
      </trkpt>
      <trkpt lat="46.99261" lon="7.24457">
        <ele>487.2</ele>
        <time>2021-03-25T09:28:41.622Z</time>
      </trkpt>
      <trkpt lat="46.99265" lon="7.24399">
        <ele>492.8</ele>
        <time>2021-03-25T09:30:45.656Z</time>
      </trkpt>
      <trkpt lat="46.99279" lon="7.24348">
        <ele>493.7</ele>
        <time>2021-03-25T09:31:24.528Z</time>
      </trkpt>
      <trkpt lat="46.99296" lon="7.2431">
        <ele>490.7</ele>
        <time>2021-03-25T09:31:30.608Z</time>
      </trkpt>
      <trkpt lat="46.99304" lon="7.24275">
        <ele>490.8</ele>
        <time>2021-03-25T09:31:51.739Z</time>
      </trkpt>
      <trkpt lat="46.99313" lon="7.24252">
        <ele>488.8</ele>
        <time>2021-03-25T09:31:55.287Z</time>
        <extensions>
          <visugpx:TrkExtension xmlns:visugpx="https://www.visugpx.com/editgpx/">
            <visugpx:node>3</visugpx:node>
            </visugpx:TrkExtension>
        </extensions>
      </trkpt>
      <trkpt lat="46.99318" lon="7.24238">
        <ele>488</ele>
        <time>2021-03-25T09:31:57.402Z</time>
      </trkpt>
      <trkpt lat="46.99328" lon="7.24219">
        <ele>486.1</ele>
        <time>2021-03-25T09:32:00.613Z</time>
      </trkpt>
      <trkpt lat="46.99349" lon="7.24168">
        <ele>487.5</ele>
        <time>2021-03-25T09:32:48.627Z</time>
      </trkpt>
      <trkpt lat="46.99355" lon="7.24135">
        <ele>490.9</ele>
        <time>2021-03-25T09:34:01.291Z</time>
      </trkpt>
      <trkpt lat="46.99367" lon="7.24128">
        <ele>489.1</ele>
        <time>2021-03-25T09:34:03.824Z</time>
      </trkpt>
      <trkpt lat="46.9937" lon="7.24123">
        <ele>489.3</ele>
        <time>2021-03-25T09:34:09.981Z</time>
      </trkpt>
      <trkpt lat="46.99394" lon="7.24105">
        <ele>487.3</ele>
        <time>2021-03-25T09:34:15.269Z</time>
      </trkpt>
      <trkpt lat="46.99426" lon="7.24059">
        <ele>490.1</ele>
        <time>2021-03-25T09:35:24.285Z</time>
      </trkpt>
      <trkpt lat="46.99456" lon="7.24031">
        <ele>489.9</ele>
        <time>2021-03-25T09:35:50.764Z</time>
      </trkpt>
      <trkpt lat="46.9947" lon="7.24009">
        <ele>490.6</ele>
        <time>2021-03-25T09:36:14.902Z</time>
      </trkpt>
      <trkpt lat="46.99487" lon="7.23995">
        <ele>489.5</ele>
        <time>2021-03-25T09:36:18.702Z</time>
      </trkpt>
      <trkpt lat="46.99497" lon="7.23977">
        <ele>491.4</ele>
        <time>2021-03-25T09:37:00.060Z</time>
      </trkpt>
      <trkpt lat="46.99514" lon="7.23963">
        <ele>492.1</ele>
        <time>2021-03-25T09:37:23.554Z</time>
      </trkpt>
      <trkpt lat="46.99534" lon="7.2393">
        <ele>494</ele>
        <time>2021-03-25T09:38:10.131Z</time>
      </trkpt>
      <trkpt lat="46.99548" lon="7.23919">
        <ele>492.2</ele>
        <time>2021-03-25T09:38:13.247Z</time>
      </trkpt>
      <trkpt lat="46.99589" lon="7.23911">
        <ele>484.9</ele>
        <time>2021-03-25T09:38:21.361Z</time>
      </trkpt>
      <trkpt lat="46.99628" lon="7.23892">
        <ele>484.7</ele>
        <time>2021-03-25T09:38:52.290Z</time>
      </trkpt>
      <trkpt lat="46.99634" lon="7.23889">
        <ele>484.9</ele>
        <time>2021-03-25T09:38:59.501Z</time>
      </trkpt>
      <trkpt lat="46.99641" lon="7.23882">
        <ele>485.6</ele>
        <time>2021-03-25T09:39:14.739Z</time>
        <extensions>
          <visugpx:TrkExtension xmlns:visugpx="https://www.visugpx.com/editgpx/">
            <visugpx:node>4</visugpx:node>
            </visugpx:TrkExtension>
        </extensions>
      </trkpt>
      <trkpt lat="46.99658" lon="7.2386">
        <ele>488.2</ele>
        <time>2021-03-25T09:40:10.376Z</time>
      </trkpt>
      <trkpt lat="46.99673" lon="7.2385">
        <ele>488.5</ele>
        <time>2021-03-25T09:40:26.369Z</time>
      </trkpt>
      <trkpt lat="46.99689" lon="7.23848">
        <ele>487.2</ele>
        <time>2021-03-25T09:40:29.519Z</time>
      </trkpt>
      <trkpt lat="46.99707" lon="7.23851">
        <ele>484.6</ele>
        <time>2021-03-25T09:40:33.073Z</time>
      </trkpt>
      <trkpt lat="46.99726" lon="7.2385">
        <ele>482.8</ele>
        <time>2021-03-25T09:40:36.803Z</time>
      </trkpt>
      <trkpt lat="46.99788" lon="7.23828">
        <ele>486.3</ele>
        <time>2021-03-25T09:42:09.979Z</time>
      </trkpt>
      <trkpt lat="46.99818" lon="7.2382">
        <ele>489.2</ele>
        <time>2021-03-25T09:43:11.187Z</time>
      </trkpt>
      <trkpt lat="46.99863" lon="7.23807">
        <ele>493.2</ele>
        <time>2021-03-25T09:44:36.957Z</time>
      </trkpt>
      <trkpt lat="46.99906" lon="7.23803">
        <ele>493.8</ele>
        <time>2021-03-25T09:45:16.896Z</time>
      </trkpt>
      <trkpt lat="46.99967" lon="7.23785">
        <ele>487.8</ele>
        <time>2021-03-25T09:45:29.103Z</time>
      </trkpt>
      <trkpt lat="46.99998" lon="7.23786">
        <ele>481.8</ele>
        <time>2021-03-25T09:45:35.186Z</time>
      </trkpt>
      <trkpt lat="47.00065" lon="7.23793">
        <ele>477</ele>
        <time>2021-03-25T09:45:48.363Z</time>
        <extensions>
          <visugpx:TrkExtension xmlns:visugpx="https://www.visugpx.com/editgpx/">
            <visugpx:node>5</visugpx:node>
            </visugpx:TrkExtension>
        </extensions>
      </trkpt>
      <trkpt lat="47.00077" lon="7.23793">
        <ele>476.3</ele>
        <time>2021-03-25T09:45:50.665Z</time>
      </trkpt>
      <trkpt lat="47.00101" lon="7.23796">
        <ele>475.7</ele>
        <time>2021-03-25T09:45:56.999Z</time>
      </trkpt>
      <trkpt lat="47.00151" lon="7.23813">
        <ele>474.2</ele>
        <time>2021-03-25T09:46:09.878Z</time>
      </trkpt>
      <trkpt lat="47.00196" lon="7.23822">
        <ele>474.3</ele>
        <time>2021-03-25T09:46:47.363Z</time>
      </trkpt>
      <trkpt lat="47.00208" lon="7.2383">
        <ele>473.8</ele>
        <time>2021-03-25T09:46:50.392Z</time>
      </trkpt>
      <trkpt lat="47.00211" lon="7.23839">
        <ele>473.3</ele>
        <time>2021-03-25T09:46:51.732Z</time>
      </trkpt>
      <trkpt lat="47.00214" lon="7.23849">
        <ele>472.7</ele>
        <time>2021-03-25T09:46:53.194Z</time>
      </trkpt>
      <trkpt lat="47.00222" lon="7.23852">
        <ele>472.9</ele>
        <time>2021-03-25T09:47:01.776Z</time>
      </trkpt>
      <trkpt lat="47.00249" lon="7.23849">
        <ele>474</ele>
        <time>2021-03-25T09:47:36.651Z</time>
      </trkpt>
      <trkpt lat="47.00265" lon="7.23853">
        <ele>474.6</ele>
        <time>2021-03-25T09:47:56.497Z</time>
      </trkpt>
      <trkpt lat="47.00296" lon="7.2387">
        <ele>474.2</ele>
        <time>2021-03-25T09:48:06.643Z</time>
      </trkpt>
      <trkpt lat="47.00333" lon="7.23891">
        <ele>472</ele>
        <time>2021-03-25T09:48:14.435Z</time>
      </trkpt>
      <trkpt lat="47.00344" lon="7.23891">
        <ele>473.9</ele>
        <time>2021-03-25T09:48:48.748Z</time>
      </trkpt>
      <trkpt lat="47.00358" lon="7.23908">
        <ele>473.8</ele>
        <time>2021-03-25T09:49:02.305Z</time>
      </trkpt>
      <trkpt lat="47.00376" lon="7.23925">
        <ele>474.6</ele>
        <time>2021-03-25T09:49:28.630Z</time>
      </trkpt>
      <trkpt lat="47.00353" lon="7.23967">
        <ele>466.5</ele>
        <time>2021-03-25T09:49:35.836Z</time>
        <extensions>
          <visugpx:TrkExtension xmlns:visugpx="https://www.visugpx.com/editgpx/">
            <visugpx:node>7</visugpx:node>
            </visugpx:TrkExtension>
        </extensions>
      </trkpt>
      <trkpt lat="47.00324" lon="7.24027">
        <ele>460.2</ele>
        <time>2021-03-25T09:49:45.675Z</time>
      </trkpt>
      <trkpt lat="47.00316" lon="7.2404">
        <ele>460</ele>
        <time>2021-03-25T09:49:49.127Z</time>
      </trkpt>
      <trkpt lat="47.00296" lon="7.24048">
        <ele>460.7</ele>
        <time>2021-03-25T09:50:13.400Z</time>
      </trkpt>
      <trkpt lat="47.0025" lon="7.24061">
        <ele>462.8</ele>
        <time>2021-03-25T09:51:17.473Z</time>
      </trkpt>
      <trkpt lat="47.0023" lon="7.24067">
        <ele>462.2</ele>
        <time>2021-03-25T09:51:22.587Z</time>
      </trkpt>
      <trkpt lat="47.00203" lon="7.24076">
        <ele>461.2</ele>
        <time>2021-03-25T09:51:29.063Z</time>
      </trkpt>
      <trkpt lat="47.00173" lon="7.24091">
        <ele>460</ele>
        <time>2021-03-25T09:51:36.350Z</time>
      </trkpt>
      <trkpt lat="47.0019" lon="7.24113">
        <ele>460</ele>
        <time>2021-03-25T09:51:54.687Z</time>
      </trkpt>
      <trkpt lat="47.00199" lon="7.24107">
        <ele>460.3</ele>
        <time>2021-03-25T09:52:05.760Z</time>
      </trkpt>
      <trkpt lat="47.00202" lon="7.24109">
        <ele>460.3</ele>
        <time>2021-03-25T09:52:08.425Z</time>
      </trkpt>
      <trkpt lat="47.00202" lon="7.24113">
        <ele>460.2</ele>
        <time>2021-03-25T09:52:09.060Z</time>
      </trkpt>
      <trkpt lat="47.00194" lon="7.24128">
        <ele>459.8</ele>
        <time>2021-03-25T09:52:12.265Z</time>
      </trkpt>
      <trkpt lat="47.00187" lon="7.24142">
        <ele>459.4</ele>
        <time>2021-03-25T09:52:15.099Z</time>
      </trkpt>
      <trkpt lat="47.00124" lon="7.24212">
        <ele>457.9</ele>
        <time>2021-03-25T09:52:37.346Z</time>
        <extensions>
          <visugpx:TrkExtension xmlns:visugpx="https://www.visugpx.com/editgpx/">
            <visugpx:node>8</visugpx:node>
            </visugpx:TrkExtension>
        </extensions>
      </trkpt>
      <trkpt lat="47.00056" lon="7.24288">
        <ele>457.6</ele>
        <time>2021-03-25T09:53:42.965Z</time>
      </trkpt>
      <trkpt lat="46.9999" lon="7.2436">
        <ele>457.7</ele>
        <time>2021-03-25T09:54:50.242Z</time>
        <extensions>
          <visugpx:TrkExtension xmlns:visugpx="https://www.visugpx.com/editgpx/">
            <visugpx:node>10</visugpx:node>
            </visugpx:TrkExtension>
        </extensions>
      </trkpt>
      <trkpt lat="46.99899" lon="7.2446">
        <ele>459.3</ele>
        <time>2021-03-25T09:56:35.815Z</time>
      </trkpt>
      <trkpt lat="46.99893" lon="7.24476">
        <ele>460.2</ele>
        <time>2021-03-25T09:56:56.434Z</time>
      </trkpt>
      <trkpt lat="46.99871" lon="7.24492">
        <ele>463.1</ele>
        <time>2021-03-25T09:58:14.577Z</time>
      </trkpt>
      <trkpt lat="46.99854" lon="7.24517">
        <ele>468.9</ele>
        <time>2021-03-25T09:59:28.210Z</time>
      </trkpt>
      <trkpt lat="46.99848" lon="7.24517">
        <ele>469.9</ele>
        <time>2021-03-25T09:59:46.926Z</time>
        <extensions>
          <visugpx:TrkExtension xmlns:visugpx="https://www.visugpx.com/editgpx/">
            <visugpx:node>13</visugpx:node>
            </visugpx:TrkExtension>
        </extensions>
      </trkpt>
      <trkpt lat="46.99836" lon="7.24515">
        <ele>471.4</ele>
        <time>2021-03-25T10:00:20.164Z</time>
      </trkpt>
      <trkpt lat="46.99803" lon="7.24515">
        <ele>469.5</ele>
        <time>2021-03-25T10:00:26.533Z</time>
      </trkpt>
      <trkpt lat="46.99768" lon="7.24538">
        <ele>472.5</ele>
        <time>2021-03-25T10:01:33.072Z</time>
      </trkpt>
      <trkpt lat="46.99757" lon="7.24539">
        <ele>471.9</ele>
        <time>2021-03-25T10:01:35.255Z</time>
      </trkpt>
      <trkpt lat="46.9975" lon="7.2455">
        <ele>474</ele>
        <time>2021-03-25T10:02:07.262Z</time>
      </trkpt>
      <trkpt lat="46.99737" lon="7.24562">
        <ele>475.2</ele>
        <time>2021-03-25T10:02:33.891Z</time>
        <extensions>
          <visugpx:TrkExtension xmlns:visugpx="https://www.visugpx.com/editgpx/">
            <visugpx:node>14</visugpx:node>
            </visugpx:TrkExtension>
        </extensions>
      </trkpt>
      <trkpt lat="46.99695" lon="7.24601">
        <ele>475.7</ele>
        <time>2021-03-25T10:03:18.175Z</time>
      </trkpt>
      <trkpt lat="46.99641" lon="7.24648">
        <ele>475.9</ele>
        <time>2021-03-25T10:04:10.487Z</time>
      </trkpt>
      <trkpt lat="46.99586" lon="7.24717">
        <ele>476.7</ele>
        <time>2021-03-25T10:05:15.621Z</time>
        <extensions>
          <visugpx:TrkExtension xmlns:visugpx="https://www.visugpx.com/editgpx/">
            <visugpx:node>15</visugpx:node>
            </visugpx:TrkExtension>
        </extensions>
      </trkpt>
      <trkpt lat="46.99586" lon="7.24718">
        <ele>476.9</ele>
        <time>2021-03-25T10:05:17.749Z</time>
      </trkpt>
      <trkpt lat="46.99556" lon="7.24739">
        <ele>475.5</ele>
        <time>2021-03-25T10:05:25.089Z</time>
      </trkpt>
      <trkpt lat="46.99549" lon="7.24744">
        <ele>474.8</ele>
        <time>2021-03-25T10:05:26.617Z</time>
      </trkpt>
      <trkpt lat="46.9947" lon="7.24818">
        <ele>465.6</ele>
        <time>2021-03-25T10:05:45.008Z</time>
      </trkpt>
      <trkpt lat="46.99443" lon="7.24841">
        <ele>463</ele>
        <time>2021-03-25T10:05:51.134Z</time>
        <extensions>
          <visugpx:TrkExtension xmlns:visugpx="https://www.visugpx.com/editgpx/">
            <visugpx:node>16</visugpx:node>
            </visugpx:TrkExtension>
        </extensions>
      </trkpt>
      <trkpt lat="46.99307" lon="7.24955">
        <ele>460.1</ele>
        <time>2021-03-25T10:06:35.471Z</time>
        <extensions>
          <visugpx:TrkExtension xmlns:visugpx="https://www.visugpx.com/editgpx/">
            <visugpx:node>17</visugpx:node>
            </visugpx:TrkExtension>
        </extensions>
      </trkpt>
      <trkpt lat="46.99255" lon="7.24998">
        <ele>460</ele>
        <time>2021-03-25T10:07:22.544Z</time>
      </trkpt>
      <trkpt lat="46.99172" lon="7.25067">
        <ele>460.4</ele>
        <time>2021-03-25T10:08:42.790Z</time>
      </trkpt>
      <trkpt lat="46.99168" lon="7.25076">
        <ele>460.2</ele>
        <time>2021-03-25T10:08:44.667Z</time>
      </trkpt>
      <trkpt lat="46.99156" lon="7.25092">
        <ele>459.6</ele>
        <time>2021-03-25T10:08:48.428Z</time>
      </trkpt>
      <trkpt lat="46.99155" lon="7.25096">
        <ele>459.5</ele>
        <time>2021-03-25T10:08:49.119Z</time>
      </trkpt>
      <trkpt lat="46.99157" lon="7.25108">
        <ele>459.3</ele>
        <time>2021-03-25T10:08:51.364Z</time>
      </trkpt>
      <trkpt lat="46.99153" lon="7.2514">
        <ele>458.8</ele>
        <time>2021-03-25T10:08:57.357Z</time>
      </trkpt>
      <trkpt lat="46.99149" lon="7.25155">
        <ele>458.6</ele>
        <time>2021-03-25T10:09:00.477Z</time>
      </trkpt>
      <trkpt lat="46.99141" lon="7.2517">
        <ele>458.6</ele>
        <time>2021-03-25T10:09:10.981Z</time>
      </trkpt>
      <trkpt lat="46.99129" lon="7.25183">
        <ele>458.6</ele>
        <time>2021-03-25T10:09:23.048Z</time>
        <extensions>
          <visugpx:TrkExtension xmlns:visugpx="https://www.visugpx.com/editgpx/">
            <visugpx:node>18</visugpx:node>
            </visugpx:TrkExtension>
        </extensions>
      </trkpt>
      <trkpt lat="46.99118" lon="7.25194">
        <ele>458.6</ele>
        <time>2021-03-25T10:09:33.816Z</time>
      </trkpt>
      <trkpt lat="46.99091" lon="7.25218">
        <ele>458.6</ele>
        <time>2021-03-25T10:09:59.352Z</time>
      </trkpt>
      <trkpt lat="46.9905" lon="7.25276">
        <ele>458.7</ele>
        <time>2021-03-25T10:10:46.182Z</time>
      </trkpt>
      <trkpt lat="46.99015" lon="7.25317">
        <ele>459</ele>
        <time>2021-03-25T10:11:24.781Z</time>
      </trkpt>
      <trkpt lat="46.98991" lon="7.25341">
        <ele>459.1</ele>
        <time>2021-03-25T10:11:49.040Z</time>
      </trkpt>
      <trkpt lat="46.98951" lon="7.25373">
        <ele>459</ele>
        <time>2021-03-25T10:12:24.694Z</time>
      </trkpt>
      <trkpt lat="46.98919" lon="7.25402">
        <ele>458.4</ele>
        <time>2021-03-25T10:12:35.677Z</time>
      </trkpt>
      <trkpt lat="46.98916" lon="7.25405">
        <ele>458.3</ele>
        <time>2021-03-25T10:12:36.605Z</time>
        <extensions>
          <visugpx:TrkExtension xmlns:visugpx="https://www.visugpx.com/editgpx/">
            <visugpx:node>19</visugpx:node>
            </visugpx:TrkExtension>
        </extensions>
      </trkpt>
      <trkpt lat="46.98856" lon="7.25468">
        <ele>458.9</ele>
        <time>2021-03-25T10:13:41.093Z</time>
      </trkpt>
      <trkpt lat="46.98841" lon="7.25487">
        <ele>459</ele>
        <time>2021-03-25T10:13:57.901Z</time>
      </trkpt>
      <trkpt lat="46.98828" lon="7.25511">
        <ele>459</ele>
        <time>2021-03-25T10:14:14.808Z</time>
      </trkpt>
      <trkpt lat="46.98807" lon="7.25561">
        <ele>458.9</ele>
        <time>2021-03-25T10:14:46.006Z</time>
      </trkpt>
      <trkpt lat="46.98798" lon="7.25582">
        <ele>458.6</ele>
        <time>2021-03-25T10:14:50.839Z</time>
        <extensions>
          <visugpx:TrkExtension xmlns:visugpx="https://www.visugpx.com/editgpx/">
            <visugpx:node>20</visugpx:node>
            </visugpx:TrkExtension>
        </extensions>
      </trkpt>
      <trkpt lat="46.98748" lon="7.2569">
        <ele>460.7</ele>
        <time>2021-03-25T10:16:22.689Z</time>
      </trkpt>
      <trkpt lat="46.98742" lon="7.25695">
        <ele>461.3</ele>
        <time>2021-03-25T10:16:35.564Z</time>
      </trkpt>
      <trkpt lat="46.98739" lon="7.25694">
        <ele>461.3</ele>
        <time>2021-03-25T10:16:38.052Z</time>
      </trkpt>
      <trkpt lat="46.98742" lon="7.2572">
        <ele>463</ele>
        <time>2021-03-25T10:17:13.960Z</time>
      </trkpt>
      <trkpt lat="46.98725" lon="7.25726">
        <ele>463.7</ele>
        <time>2021-03-25T10:17:36.289Z</time>
      </trkpt>
      <trkpt lat="46.98673" lon="7.25753">
        <ele>466.2</ele>
        <time>2021-03-25T10:18:51.976Z</time>
      </trkpt>
      <trkpt lat="46.9867" lon="7.25756">
        <ele>466.4</ele>
        <time>2021-03-25T10:18:57.288Z</time>
        <extensions>
          <visugpx:TrkExtension xmlns:visugpx="https://www.visugpx.com/editgpx/">
            <visugpx:node>21</visugpx:node>
            </visugpx:TrkExtension>
        </extensions>
      </trkpt>
      <trkpt lat="46.9866" lon="7.25765">
        <ele>466.8</ele>
        <time>2021-03-25T10:19:11.086Z</time>
      </trkpt>
      <trkpt lat="46.98656" lon="7.25769">
        <ele>466.8</ele>
        <time>2021-03-25T10:19:15.002Z</time>
      </trkpt>
      <trkpt lat="46.98642" lon="7.2577">
        <ele>466.2</ele>
        <time>2021-03-25T10:19:18.077Z</time>
      </trkpt>
      <trkpt lat="46.98627" lon="7.25779">
        <ele>465.8</ele>
        <time>2021-03-25T10:19:22.350Z</time>
      </trkpt>
      <trkpt lat="46.98613" lon="7.25804">
        <ele>465.9</ele>
        <time>2021-03-25T10:19:40.967Z</time>
        <extensions>
          <visugpx:TrkExtension xmlns:visugpx="https://www.visugpx.com/editgpx/">
            <visugpx:node>22</visugpx:node>
            </visugpx:TrkExtension>
        </extensions>
      </trkpt>
      <trkpt lat="46.98597" lon="7.25835">
        <ele>465.5</ele>
        <time>2021-03-25T10:19:48.792Z</time>
      </trkpt>
      <trkpt lat="46.98587" lon="7.25869">
        <ele>467.4</ele>
        <time>2021-03-25T10:20:31.581Z</time>
      </trkpt>
      <trkpt lat="46.98571" lon="7.25907">
        <ele>469.6</ele>
        <time>2021-03-25T10:21:21.998Z</time>
      </trkpt>
      <trkpt lat="46.98558" lon="7.25946">
        <ele>473.7</ele>
        <time>2021-03-25T10:22:54.930Z</time>
      </trkpt>
      <trkpt lat="46.98551" lon="7.2599">
        <ele>479.6</ele>
        <time>2021-03-25T10:24:30.642Z</time>
      </trkpt>
      <trkpt lat="46.98544" lon="7.26106">
        <ele>494.2</ele>
        <time>2021-03-25T10:28:38.363Z</time>
      </trkpt>
      <trkpt lat="46.98537" lon="7.26127">
        <ele>496.3</ele>
        <time>2021-03-25T10:29:26.888Z</time>
      </trkpt>
      <trkpt lat="46.98482" lon="7.26234">
        <ele>512</ele>
        <time>2021-03-25T10:34:11.982Z</time>
      </trkpt>
      <trkpt lat="46.98476" lon="7.2624">
        <ele>513.5</ele>
        <time>2021-03-25T10:34:34.639Z</time>
      </trkpt>
      <trkpt lat="46.98439" lon="7.26258">
        <ele>521.5</ele>
        <time>2021-03-25T10:36:35.850Z</time>
      </trkpt>
      <trkpt lat="46.98408" lon="7.26264">
        <ele>524.5</ele>
        <time>2021-03-25T10:38:13.937Z</time>
      </trkpt>
      <trkpt lat="46.98381" lon="7.26292">
        <ele>521</ele>
        <time>2021-03-25T10:38:20.426Z</time>
      </trkpt>
      <trkpt lat="46.98367" lon="7.26303">
        <ele>522.8</ele>
        <time>2021-03-25T10:39:11.102Z</time>
      </trkpt>
      <trkpt lat="46.98347" lon="7.26302">
        <ele>524.9</ele>
        <time>2021-03-25T10:40:11.879Z</time>
        <extensions>
          <visugpx:TrkExtension xmlns:visugpx="https://www.visugpx.com/editgpx/">
            <visugpx:node>23</visugpx:node>
            </visugpx:TrkExtension>
        </extensions>
      </trkpt>
      <trkpt lat="46.98339" lon="7.26304">
        <ele>526.4</ele>
        <time>2021-03-25T10:40:37.194Z</time>
      </trkpt>
      <trkpt lat="46.98315" lon="7.26319">
        <ele>528.1</ele>
        <time>2021-03-25T10:41:18.157Z</time>
      </trkpt>
      <trkpt lat="46.98291" lon="7.26348">
        <ele>534</ele>
        <time>2021-03-25T10:42:54.166Z</time>
      </trkpt>
      <trkpt lat="46.98278" lon="7.26378">
        <ele>545</ele>
        <time>2021-03-25T10:44:10.793Z</time>
      </trkpt>
      <trkpt lat="46.9827" lon="7.26401">
        <ele>556</ele>
        <time>2021-03-25T10:45:04.780Z</time>
      </trkpt>
      <trkpt lat="46.98272" lon="7.26417">
        <ele>562.6</ele>
        <time>2021-03-25T10:45:40.011Z</time>
      </trkpt>
      <trkpt lat="46.98274" lon="7.2644">
        <ele>563.8</ele>
        <time>2021-03-25T10:46:06.943Z</time>
        <extensions>
          <visugpx:TrkExtension xmlns:visugpx="https://www.visugpx.com/editgpx/">
            <visugpx:node>24</visugpx:node>
            </visugpx:TrkExtension>
        </extensions>
      </trkpt>
      <trkpt lat="46.98277" lon="7.26481">
        <ele>566.1</ele>
        <time>2021-03-25T10:46:57.176Z</time>
      </trkpt>
      <trkpt lat="46.9828" lon="7.26525">
        <ele>566.1</ele>
        <time>2021-03-25T10:47:21.634Z</time>
      </trkpt>
      <trkpt lat="46.98273" lon="7.2656">
        <ele>567.9</ele>
        <time>2021-03-25T10:48:02.767Z</time>
      </trkpt>
      <trkpt lat="46.98262" lon="7.26574">
        <ele>572.1</ele>
        <time>2021-03-25T10:48:48.209Z</time>
      </trkpt>
      <trkpt lat="46.98238" lon="7.2658">
        <ele>577.2</ele>
        <time>2021-03-25T10:50:03.344Z</time>
      </trkpt>
      <trkpt lat="46.98219" lon="7.2658">
        <ele>577.7</ele>
        <time>2021-03-25T10:50:23.779Z</time>
      </trkpt>
      <trkpt lat="46.98211" lon="7.26587">
        <ele>577.7</ele>
        <time>2021-03-25T10:50:52.749Z</time>
      </trkpt>
      <trkpt lat="46.98205" lon="7.26597">
        <ele>577.4</ele>
        <time>2021-03-25T10:51:21.360Z</time>
      </trkpt>
      <trkpt lat="46.98192" lon="7.26627">
        <ele>577.5</ele>
        <time>2021-03-25T10:51:41.738Z</time>
      </trkpt>
      <trkpt lat="46.98177" lon="7.26644">
        <ele>579.5</ele>
        <time>2021-03-25T10:52:23.864Z</time>
      </trkpt>
      <trkpt lat="46.98131" lon="7.26695">
        <ele>583.4</ele>
        <time>2021-03-25T10:53:56.068Z</time>
      </trkpt>
      <trkpt lat="46.98079" lon="7.26746">
        <ele>582.3</ele>
        <time>2021-03-25T10:54:13.974Z</time>
      </trkpt>
      <trkpt lat="46.98059" lon="7.26765">
        <ele>583</ele>
        <time>2021-03-25T10:54:40.343Z</time>
      </trkpt>
      <trkpt lat="46.9804" lon="7.26771">
        <ele>583.8</ele>
        <time>2021-03-25T10:55:05.573Z</time>
      </trkpt>
      <trkpt lat="46.98031" lon="7.26775">
        <ele>584.2</ele>
        <time>2021-03-25T10:55:33.856Z</time>
      </trkpt>
      <trkpt lat="46.98026" lon="7.2678">
        <ele>584.4</ele>
        <time>2021-03-25T10:55:53.498Z</time>
      </trkpt>
      <trkpt lat="46.98025" lon="7.26801">
        <ele>584.2</ele>
        <time>2021-03-25T10:55:57.798Z</time>
      </trkpt>
      <trkpt lat="46.98026" lon="7.26819">
        <ele>583.9</ele>
        <time>2021-03-25T10:56:01.058Z</time>
        <extensions>
          <visugpx:TrkExtension xmlns:visugpx="https://www.visugpx.com/editgpx/">
            <visugpx:node>26</visugpx:node>
            </visugpx:TrkExtension>
        </extensions>
      </trkpt>
      <trkpt lat="46.98031" lon="7.26853">
        <ele>583.1</ele>
        <time>2021-03-25T10:56:06.743Z</time>
      </trkpt>
      <trkpt lat="46.98029" lon="7.26867">
        <ele>582.9</ele>
        <time>2021-03-25T10:56:09.441Z</time>
      </trkpt>
      <trkpt lat="46.98017" lon="7.26907">
        <ele>582.6</ele>
        <time>2021-03-25T10:56:18.824Z</time>
      </trkpt>
      <trkpt lat="46.98005" lon="7.26928">
        <ele>582.2</ele>
        <time>2021-03-25T10:57:18.308Z</time>
      </trkpt>
      <trkpt lat="46.98006" lon="7.26944">
        <ele>581.1</ele>
        <time>2021-03-25T10:57:52.398Z</time>
      </trkpt>
      <trkpt lat="46.97989" lon="7.26957">
        <ele>579.5</ele>
        <time>2021-03-25T10:57:56.160Z</time>
      </trkpt>
      <trkpt lat="46.97973" lon="7.26964">
        <ele>577.5</ele>
        <time>2021-03-25T10:57:59.436Z</time>
        <extensions>
          <visugpx:TrkExtension xmlns:visugpx="https://www.visugpx.com/editgpx/">
            <visugpx:node>27</visugpx:node>
            </visugpx:TrkExtension>
        </extensions>
      </trkpt>
      <trkpt lat="46.97945" lon="7.26976">
        <ele>574.2</ele>
        <time>2021-03-25T10:58:05.158Z</time>
      </trkpt>
      <trkpt lat="46.97927" lon="7.26976">
        <ele>572.6</ele>
        <time>2021-03-25T10:58:08.690Z</time>
      </trkpt>
      <trkpt lat="46.97919" lon="7.26976">
        <ele>571.8</ele>
        <time>2021-03-25T10:58:10.259Z</time>
      </trkpt>
      <trkpt lat="46.97915" lon="7.26971">
        <ele>571.4</ele>
        <time>2021-03-25T10:58:11.290Z</time>
      </trkpt>
      <trkpt lat="46.9788" lon="7.26896">
        <ele>566.6</ele>
        <time>2021-03-25T11:01:25.134Z</time>
      </trkpt>
      <trkpt lat="46.97864" lon="7.26858">
        <ele>564.2</ele>
        <time>2021-03-25T11:02:59.763Z</time>
      </trkpt>
      <trkpt lat="46.97861" lon="7.26843">
        <ele>563.9</ele>
        <time>2021-03-25T11:03:02.470Z</time>
      </trkpt>
      <trkpt lat="46.97859" lon="7.26807">
        <ele>563.9</ele>
        <time>2021-03-25T11:03:22.400Z</time>
      </trkpt>
      <trkpt lat="46.97856" lon="7.26787">
        <ele>563.5</ele>
        <time>2021-03-25T11:03:25.928Z</time>
      </trkpt>
      <trkpt lat="46.97845" lon="7.26731">
        <ele>561.3</ele>
        <time>2021-03-25T11:03:33.744Z</time>
      </trkpt>
      <trkpt lat="46.97837" lon="7.2671">
        <ele>559.3</ele>
        <time>2021-03-25T11:03:36.964Z</time>
      </trkpt>
      <trkpt lat="46.97832" lon="7.26696">
        <ele>558.2</ele>
        <time>2021-03-25T11:03:39.079Z</time>
      </trkpt>
      <trkpt lat="46.97822" lon="7.26662">
        <ele>556.4</ele>
        <time>2021-03-25T11:03:44.034Z</time>
      </trkpt>
      <trkpt lat="46.97815" lon="7.26619">
        <ele>554.3</ele>
        <time>2021-03-25T11:03:49.951Z</time>
        <extensions>
          <visugpx:TrkExtension xmlns:visugpx="https://www.visugpx.com/editgpx/">
            <visugpx:node>29</visugpx:node>
            </visugpx:TrkExtension>
        </extensions>
      </trkpt>
      <trkpt lat="46.97814" lon="7.26614">
        <ele>554</ele>
        <time>2021-03-25T11:03:50.649Z</time>
      </trkpt>
      <trkpt lat="46.97811" lon="7.2658">
        <ele>552.8</ele>
        <time>2021-03-25T11:03:55.406Z</time>
      </trkpt>
      <trkpt lat="46.97812" lon="7.26558">
        <ele>553.4</ele>
        <time>2021-03-25T11:04:14.575Z</time>
      </trkpt>
      <trkpt lat="46.97821" lon="7.26519">
        <ele>555.9</ele>
        <time>2021-03-25T11:05:07.931Z</time>
      </trkpt>
      <trkpt lat="46.97825" lon="7.26356">
        <ele>553.4</ele>
        <time>2021-03-25T11:05:38.007Z</time>
      </trkpt>
      <trkpt lat="46.97824" lon="7.2634">
        <ele>552.2</ele>
        <time>2021-03-25T11:05:40.157Z</time>
      </trkpt>
      <trkpt lat="46.97811" lon="7.26308">
        <ele>545.1</ele>
        <time>2021-03-25T11:05:45.120Z</time>
      </trkpt>
      <trkpt lat="46.97794" lon="7.26292">
        <ele>540.6</ele>
        <time>2021-03-25T11:05:49.074Z</time>
        <extensions>
          <visugpx:TrkExtension xmlns:visugpx="https://www.visugpx.com/editgpx/">
            <visugpx:node>31</visugpx:node>
            </visugpx:TrkExtension>
        </extensions>
      </trkpt>
      <trkpt lat="46.97794" lon="7.26292">
        <ele>540.6</ele>
        <time>2021-03-25T11:05:49.074Z</time>
        <extensions>
          <visugpx:TrkExtension xmlns:visugpx="https://www.visugpx.com/editgpx/">
            <visugpx:node>32</visugpx:node>
            </visugpx:TrkExtension>
        </extensions>
      </trkpt>
      <trkpt lat="46.97794" lon="7.26292">
        <ele>540.6</ele>
        <time>2021-03-25T11:05:49.074Z</time>
        <extensions>
          <visugpx:TrkExtension xmlns:visugpx="https://www.visugpx.com/editgpx/">
            <visugpx:node>33</visugpx:node>
            </visugpx:TrkExtension>
        </extensions>
      </trkpt>
      <trkpt lat="46.97763" lon="7.26271">
        <ele>536</ele>
        <time>2021-03-25T11:05:55.774Z</time>
      </trkpt>
      <trkpt lat="46.97758" lon="7.26214">
        <ele>533.2</ele>
        <time>2021-03-25T11:06:03.466Z</time>
      </trkpt>
      <trkpt lat="46.97748" lon="7.2615">
        <ele>529.5</ele>
        <time>2021-03-25T11:06:12.254Z</time>
      </trkpt>
      <trkpt lat="46.97731" lon="7.26124">
        <ele>525.1</ele>
        <time>2021-03-25T11:06:17.074Z</time>
      </trkpt>
      <trkpt lat="46.97716" lon="7.26114">
        <ele>523.4</ele>
        <time>2021-03-25T11:06:20.367Z</time>
      </trkpt>
      <trkpt lat="46.97723" lon="7.26088">
        <ele>520.5</ele>
        <time>2021-03-25T11:06:24.140Z</time>
      </trkpt>
      <trkpt lat="46.97742" lon="7.26058">
        <ele>513.1</ele>
        <time>2021-03-25T11:06:29.672Z</time>
      </trkpt>
      <trkpt lat="46.9776" lon="7.26038">
        <ele>504</ele>
        <time>2021-03-25T11:06:34.103Z</time>
      </trkpt>
      <trkpt lat="46.97769" lon="7.2603">
        <ele>499.2</ele>
        <time>2021-03-25T11:06:36.168Z</time>
      </trkpt>
      <trkpt lat="46.97768" lon="7.26014">
        <ele>494.9</ele>
        <time>2021-03-25T11:06:38.318Z</time>
      </trkpt>
      <trkpt lat="46.97764" lon="7.25994">
        <ele>491.1</ele>
        <time>2021-03-25T11:06:41.108Z</time>
      </trkpt>
      <trkpt lat="46.97757" lon="7.25974">
        <ele>489.3</ele>
        <time>2021-03-25T11:06:44.116Z</time>
      </trkpt>
      <trkpt lat="46.97693" lon="7.25888">
        <ele>485.1</ele>
        <time>2021-03-25T11:07:02.233Z</time>
      </trkpt>
      <trkpt lat="46.97687" lon="7.25861">
        <ele>479.2</ele>
        <time>2021-03-25T11:07:06.034Z</time>
      </trkpt>
      <trkpt lat="46.97668" lon="7.25849">
        <ele>478.2</ele>
        <time>2021-03-25T11:07:10.352Z</time>
      </trkpt>
      <trkpt lat="46.9765" lon="7.25846">
        <ele>476.9</ele>
        <time>2021-03-25T11:07:13.906Z</time>
        <extensions>
          <visugpx:TrkExtension xmlns:visugpx="https://www.visugpx.com/editgpx/">
            <visugpx:node>34</visugpx:node>
            </visugpx:TrkExtension>
        </extensions>
      </trkpt>
      <trkpt lat="46.97637" lon="7.25841">
        <ele>475.3</ele>
        <time>2021-03-25T11:07:16.543Z</time>
      </trkpt>
      <trkpt lat="46.97611" lon="7.25835">
        <ele>473.1</ele>
        <time>2021-03-25T11:07:21.706Z</time>
      </trkpt>
      <trkpt lat="46.97603" lon="7.25835">
        <ele>472.9</ele>
        <time>2021-03-25T11:07:23.807Z</time>
      </trkpt>
      <trkpt lat="46.97585" lon="7.25838">
        <ele>473.2</ele>
        <time>2021-03-25T11:07:41.078Z</time>
      </trkpt>
      <trkpt lat="46.97584" lon="7.25839">
        <ele>473.4</ele>
        <time>2021-03-25T11:07:44.854Z</time>
        <extensions>
          <visugpx:TrkExtension xmlns:visugpx="https://www.visugpx.com/editgpx/">
            <visugpx:node>35</visugpx:node>
            </visugpx:TrkExtension>
        </extensions>
      </trkpt>
      <trkpt lat="46.97566" lon="7.25845">
        <ele>473.5</ele>
        <time>2021-03-25T11:08:00.562Z</time>
      </trkpt>
      <trkpt lat="46.97536" lon="7.25859">
        <ele>473.1</ele>
        <time>2021-03-25T11:08:10.136Z</time>
      </trkpt>
      <trkpt lat="46.97505" lon="7.25884">
        <ele>471.3</ele>
        <time>2021-03-25T11:08:17.360Z</time>
        <extensions>
          <visugpx:TrkExtension xmlns:visugpx="https://www.visugpx.com/editgpx/">
            <visugpx:node>36</visugpx:node>
            </visugpx:TrkExtension>
        </extensions>
      </trkpt>
      <trkpt lat="46.97499" lon="7.25889">
        <ele>470.6</ele>
        <time>2021-03-25T11:08:18.714Z</time>
      </trkpt>
      <trkpt lat="46.97489" lon="7.25902">
        <ele>470.5</ele>
        <time>2021-03-25T11:08:23.071Z</time>
      </trkpt>
      <trkpt lat="46.97479" lon="7.25923">
        <ele>470.7</ele>
        <time>2021-03-25T11:08:38.857Z</time>
      </trkpt>
      <trkpt lat="46.97452" lon="7.25967">
        <ele>470.4</ele>
        <time>2021-03-25T11:08:52.026Z</time>
      </trkpt>
      <trkpt lat="46.97417" lon="7.26041">
        <ele>466.6</ele>
        <time>2021-03-25T11:09:03.486Z</time>
      </trkpt>
      <trkpt lat="46.97386" lon="7.26096">
        <ele>465.7</ele>
        <time>2021-03-25T11:09:17.265Z</time>
      </trkpt>
      <trkpt lat="46.97377" lon="7.26107">
        <ele>465.3</ele>
        <time>2021-03-25T11:09:20.061Z</time>
        <extensions>
          <visugpx:TrkExtension xmlns:visugpx="https://www.visugpx.com/editgpx/">
            <visugpx:node>37</visugpx:node>
            </visugpx:TrkExtension>
        </extensions>
      </trkpt>
      <trkpt lat="46.97325" lon="7.26171">
        <ele>463.5</ele>
        <time>2021-03-25T11:09:37.605Z</time>
      </trkpt>
      <trkpt lat="46.97264" lon="7.26225">
        <ele>467.8</ele>
        <time>2021-03-25T11:11:25.702Z</time>
      </trkpt>
      <trkpt lat="46.9719" lon="7.26297">
        <ele>468.4</ele>
        <time>2021-03-25T11:12:42.273Z</time>
      </trkpt>
      <trkpt lat="46.9718" lon="7.26309">
        <ele>467.2</ele>
        <time>2021-03-25T11:12:44.809Z</time>
        <extensions>
          <visugpx:TrkExtension xmlns:visugpx="https://www.visugpx.com/editgpx/">
            <visugpx:node>38</visugpx:node>
            </visugpx:TrkExtension>
        </extensions>
      </trkpt>
      <trkpt lat="46.97176" lon="7.26314">
        <ele>466.6</ele>
        <time>2021-03-25T11:12:45.840Z</time>
      </trkpt>
      <trkpt lat="46.9717" lon="7.2632">
        <ele>466</ele>
        <time>2021-03-25T11:12:47.265Z</time>
      </trkpt>
      <trkpt lat="46.97159" lon="7.26332">
        <ele>464.9</ele>
        <time>2021-03-25T11:12:49.955Z</time>
      </trkpt>
      <trkpt lat="46.9713" lon="7.26371">
        <ele>465</ele>
        <time>2021-03-25T11:13:22.545Z</time>
      </trkpt>
      <trkpt lat="46.97114" lon="7.26405">
        <ele>463.4</ele>
        <time>2021-03-25T11:13:28.020Z</time>
      </trkpt>
      <trkpt lat="46.97084" lon="7.26513">
        <ele>464</ele>
        <time>2021-03-25T11:14:37.143Z</time>
      </trkpt>
      <trkpt lat="46.97077" lon="7.26548">
        <ele>464.4</ele>
        <time>2021-03-25T11:15:00.745Z</time>
      </trkpt>
      <trkpt lat="46.97057" lon="7.26657">
        <ele>464.7</ele>
        <time>2021-03-25T11:16:05.337Z</time>
      </trkpt>
      <trkpt lat="46.97054" lon="7.26705">
        <ele>466.5</ele>
        <time>2021-03-25T11:16:53.334Z</time>
      </trkpt>
      <trkpt lat="46.97054" lon="7.26749">
        <ele>468.5</ele>
        <time>2021-03-25T11:17:40.977Z</time>
      </trkpt>
      <trkpt lat="46.97056" lon="7.2679">
        <ele>470.5</ele>
        <time>2021-03-25T11:18:27.076Z</time>
      </trkpt>
      <trkpt lat="46.97062" lon="7.26821">
        <ele>472.6</ele>
        <time>2021-03-25T11:19:11.378Z</time>
      </trkpt>
      <trkpt lat="46.97066" lon="7.2684">
        <ele>473.5</ele>
        <time>2021-03-25T11:19:32.864Z</time>
      </trkpt>
      <trkpt lat="46.97073" lon="7.26868">
        <ele>473.2</ele>
        <time>2021-03-25T11:19:38.894Z</time>
      </trkpt>
      <trkpt lat="46.97085" lon="7.26901">
        <ele>473</ele>
        <time>2021-03-25T11:19:47.170Z</time>
      </trkpt>
      <trkpt lat="46.97108" lon="7.26951">
        <ele>475.1</ele>
        <time>2021-03-25T11:20:45.753Z</time>
      </trkpt>
      <trkpt lat="46.9713" lon="7.26988">
        <ele>479</ele>
        <time>2021-03-25T11:22:09.635Z</time>
      </trkpt>
      <trkpt lat="46.97136" lon="7.26998">
        <ele>480.4</ele>
        <time>2021-03-25T11:22:37.978Z</time>
        <extensions>
          <visugpx:TrkExtension xmlns:visugpx="https://www.visugpx.com/editgpx/">
            <visugpx:node>39</visugpx:node>
            </visugpx:TrkExtension>
        </extensions>
      </trkpt>
      <trkpt lat="46.97184" lon="7.27073">
        <ele>484.9</ele>
        <time>2021-03-25T11:24:27.324Z</time>
      </trkpt>
      <trkpt lat="46.97214" lon="7.27127">
        <ele>486.3</ele>
        <time>2021-03-25T11:25:19.955Z</time>
      </trkpt>
      <trkpt lat="46.97243" lon="7.27175">
        <ele>483.7</ele>
        <time>2021-03-25T11:25:28.273Z</time>
      </trkpt>
      <trkpt lat="46.97277" lon="7.27233">
        <ele>476.5</ele>
        <time>2021-03-25T11:25:38.509Z</time>
      </trkpt>
      <trkpt lat="46.97315" lon="7.27294">
        <ele>469.8</ele>
        <time>2021-03-25T11:25:49.565Z</time>
      </trkpt>
      <trkpt lat="46.97376" lon="7.27399">
        <ele>462.8</ele>
        <time>2021-03-25T11:26:08.025Z</time>
      </trkpt>
      <trkpt lat="46.97459" lon="7.2753">
        <ele>465.8</ele>
        <time>2021-03-25T11:28:15.356Z</time>
      </trkpt>
      <trkpt lat="46.97473" lon="7.27564">
        <ele>465.9</ele>
        <time>2021-03-25T11:28:38.036Z</time>
      </trkpt>
      <trkpt lat="46.97487" lon="7.27607">
        <ele>465.6</ele>
        <time>2021-03-25T11:28:48.383Z</time>
      </trkpt>
      <trkpt lat="46.97492" lon="7.27654">
        <ele>465.1</ele>
        <time>2021-03-25T11:28:57.922Z</time>
      </trkpt>
      <trkpt lat="46.97497" lon="7.27677">
        <ele>465.2</ele>
        <time>2021-03-25T11:29:12.027Z</time>
      </trkpt>
      <trkpt lat="46.97504" lon="7.27708">
        <ele>466.4</ele>
        <time>2021-03-25T11:29:44.350Z</time>
      </trkpt>
      <trkpt lat="46.97508" lon="7.27747">
        <ele>467.5</ele>
        <time>2021-03-25T11:30:19.138Z</time>
      </trkpt>
      <trkpt lat="46.97509" lon="7.27755">
        <ele>467.8</ele>
        <time>2021-03-25T11:30:27.200Z</time>
        <extensions>
          <visugpx:TrkExtension xmlns:visugpx="https://www.visugpx.com/editgpx/">
            <visugpx:node>40</visugpx:node>
            </visugpx:TrkExtension>
        </extensions>
      </trkpt>
      <trkpt lat="46.97509" lon="7.27796">
        <ele>469.4</ele>
        <time>2021-03-25T11:31:08.716Z</time>
      </trkpt>
      <trkpt lat="46.97522" lon="7.27831">
        <ele>472</ele>
        <time>2021-03-25T11:32:03.559Z</time>
      </trkpt>
      <trkpt lat="46.97532" lon="7.27865">
        <ele>474.5</ele>
        <time>2021-03-25T11:32:56.155Z</time>
      </trkpt>
      <trkpt lat="46.97533" lon="7.27869">
        <ele>474.9</ele>
        <time>2021-03-25T11:33:05.222Z</time>
      </trkpt>
      <trkpt lat="46.97531" lon="7.27881">
        <ele>475.2</ele>
        <time>2021-03-25T11:33:15.336Z</time>
      </trkpt>
      <trkpt lat="46.97527" lon="7.27886">
        <ele>474.9</ele>
        <time>2021-03-25T11:33:16.355Z</time>
      </trkpt>
      <trkpt lat="46.97519" lon="7.27913">
        <ele>474.8</ele>
        <time>2021-03-25T11:33:31.446Z</time>
      </trkpt>
      <trkpt lat="46.97517" lon="7.2795">
        <ele>477</ele>
        <time>2021-03-25T11:34:18.665Z</time>
      </trkpt>
      <trkpt lat="46.97511" lon="7.27974">
        <ele>477.1</ele>
        <time>2021-03-25T11:34:33.551Z</time>
      </trkpt>
      <trkpt lat="46.97503" lon="7.28011">
        <ele>476.9</ele>
        <time>2021-03-25T11:34:42.175Z</time>
      </trkpt>
      <trkpt lat="46.97493" lon="7.28062">
        <ele>479</ele>
        <time>2021-03-25T11:35:36.206Z</time>
      </trkpt>
      <trkpt lat="46.97469" lon="7.28141">
        <ele>480.4</ele>
        <time>2021-03-25T11:36:37.175Z</time>
      </trkpt>
      <trkpt lat="46.97423" lon="7.28296">
        <ele>487.6</ele>
        <time>2021-03-25T11:39:34.722Z</time>
      </trkpt>
      <trkpt lat="46.97412" lon="7.28316">
        <ele>486.2</ele>
        <time>2021-03-25T11:39:38.161Z</time>
      </trkpt>
      <trkpt lat="46.97406" lon="7.28334">
        <ele>486.8</ele>
        <time>2021-03-25T11:39:56.649Z</time>
      </trkpt>
      <trkpt lat="46.97377" lon="7.28397">
        <ele>489.7</ele>
        <time>2021-03-25T11:41:12.937Z</time>
      </trkpt>
      <trkpt lat="46.9737" lon="7.28427">
        <ele>492.2</ele>
        <time>2021-03-25T11:42:06.566Z</time>
      </trkpt>
      <trkpt lat="46.97363" lon="7.28437">
        <ele>490.9</ele>
        <time>2021-03-25T11:42:08.484Z</time>
      </trkpt>
      <trkpt lat="46.97356" lon="7.28446">
        <ele>489.8</ele>
        <time>2021-03-25T11:42:10.311Z</time>
      </trkpt>
      <trkpt lat="46.97339" lon="7.28478">
        <ele>487.9</ele>
        <time>2021-03-25T11:42:15.739Z</time>
        <extensions>
          <visugpx:TrkExtension xmlns:visugpx="https://www.visugpx.com/editgpx/">
            <visugpx:node>41</visugpx:node>
            </visugpx:TrkExtension>
        </extensions>
      </trkpt>
      <trkpt lat="46.9732" lon="7.28502">
        <ele>486.3</ele>
        <time>2021-03-25T11:42:20.348Z</time>
      </trkpt>
      <trkpt lat="46.97297" lon="7.28536">
        <ele>487.3</ele>
        <time>2021-03-25T11:42:57.061Z</time>
      </trkpt>
      <trkpt lat="46.97281" lon="7.28571">
        <ele>489.3</ele>
        <time>2021-03-25T11:43:43.692Z</time>
      </trkpt>
      <trkpt lat="46.97268" lon="7.2859">
        <ele>489</ele>
        <time>2021-03-25T11:43:49.026Z</time>
      </trkpt>
      <trkpt lat="46.97253" lon="7.28606">
        <ele>488.6</ele>
        <time>2021-03-25T11:43:54.092Z</time>
      </trkpt>
      <trkpt lat="46.97223" lon="7.28629">
        <ele>490.3</ele>
        <time>2021-03-25T11:44:42.036Z</time>
      </trkpt>
      <trkpt lat="46.97207" lon="7.28645">
        <ele>492.5</ele>
        <time>2021-03-25T11:45:28.984Z</time>
      </trkpt>
      <trkpt lat="46.9719" lon="7.28655">
        <ele>493.9</ele>
        <time>2021-03-25T11:46:00.312Z</time>
      </trkpt>
      <trkpt lat="46.97186" lon="7.28678">
        <ele>498.7</ele>
        <time>2021-03-25T11:46:50.833Z</time>
      </trkpt>
      <trkpt lat="46.97175" lon="7.28688">
        <ele>500.1</ele>
        <time>2021-03-25T11:47:20.406Z</time>
      </trkpt>
      <trkpt lat="46.97182" lon="7.28699">
        <ele>502.8</ele>
        <time>2021-03-25T11:47:52.421Z</time>
      </trkpt>
      <trkpt lat="46.97179" lon="7.2871">
        <ele>504.9</ele>
        <time>2021-03-25T11:48:17.635Z</time>
      </trkpt>
      <trkpt lat="46.97155" lon="7.28726">
        <ele>507.1</ele>
        <time>2021-03-25T11:49:05.381Z</time>
      </trkpt>
      <trkpt lat="46.97131" lon="7.28742">
        <ele>508.9</ele>
        <time>2021-03-25T11:49:47.735Z</time>
      </trkpt>
      <trkpt lat="46.97118" lon="7.2875">
        <ele>509.5</ele>
        <time>2021-03-25T11:50:06.422Z</time>
      </trkpt>
      <trkpt lat="46.97111" lon="7.28744">
        <ele>507.9</ele>
        <time>2021-03-25T11:50:08.013Z</time>
      </trkpt>
      <trkpt lat="46.97095" lon="7.28738">
        <ele>505.7</ele>
        <time>2021-03-25T11:50:11.253Z</time>
      </trkpt>
      <trkpt lat="46.97085" lon="7.28737">
        <ele>504.9</ele>
        <time>2021-03-25T11:50:13.219Z</time>
      </trkpt>
      <trkpt lat="46.97032" lon="7.28751">
        <ele>504.6</ele>
        <time>2021-03-25T11:50:53.347Z</time>
      </trkpt>
      <trkpt lat="46.96982" lon="7.28747">
        <ele>502.1</ele>
        <time>2021-03-25T11:51:03.654Z</time>
        <extensions>
          <visugpx:TrkExtension xmlns:visugpx="https://www.visugpx.com/editgpx/">
            <visugpx:node>42</visugpx:node>
            </visugpx:TrkExtension>
        </extensions>
      </trkpt>
      <trkpt lat="46.96908" lon="7.28741">
        <ele>498.4</ele>
        <time>2021-03-25T11:51:18.909Z</time>
      </trkpt>
      <trkpt lat="46.969" lon="7.28742">
        <ele>497.5</ele>
        <time>2021-03-25T11:51:20.484Z</time>
      </trkpt>
      <trkpt lat="46.96894" lon="7.28747">
        <ele>497.3</ele>
        <time>2021-03-25T11:51:22.221Z</time>
      </trkpt>
      <trkpt lat="46.96888" lon="7.28756">
        <ele>496.8</ele>
        <time>2021-03-25T11:51:23.869Z</time>
      </trkpt>
      <trkpt lat="46.96883" lon="7.28769">
        <ele>495.8</ele>
        <time>2021-03-25T11:51:25.867Z</time>
      </trkpt>
      <trkpt lat="46.96876" lon="7.28821">
        <ele>494.3</ele>
        <time>2021-03-25T11:51:33.901Z</time>
      </trkpt>
      <trkpt lat="46.96872" lon="7.28828">
        <ele>493.8</ele>
        <time>2021-03-25T11:51:35.124Z</time>
      </trkpt>
      <trkpt lat="46.96866" lon="7.28831">
        <ele>493.2</ele>
        <time>2021-03-25T11:51:36.367Z</time>
      </trkpt>
      <trkpt lat="46.96859" lon="7.2883">
        <ele>492.5</ele>
        <time>2021-03-25T11:51:37.747Z</time>
      </trkpt>
      <trkpt lat="46.96855" lon="7.28826">
        <ele>492.1</ele>
        <time>2021-03-25T11:51:38.697Z</time>
      </trkpt>
      <trkpt lat="46.96851" lon="7.28817">
        <ele>491.7</ele>
        <time>2021-03-25T11:51:40.147Z</time>
      </trkpt>
      <trkpt lat="46.96841" lon="7.28759">
        <ele>490.2</ele>
        <time>2021-03-25T11:51:49.636Z</time>
      </trkpt>
      <trkpt lat="46.9684" lon="7.28753">
        <ele>490</ele>
        <time>2021-03-25T11:51:50.522Z</time>
        <extensions>
          <visugpx:TrkExtension xmlns:visugpx="https://www.visugpx.com/editgpx/">
            <visugpx:node>43</visugpx:node>
            </visugpx:TrkExtension>
        </extensions>
      </trkpt>
      <trkpt lat="46.96839" lon="7.28731">
        <ele>489.2</ele>
        <time>2021-03-25T11:51:53.535Z</time>
      </trkpt>
      <trkpt lat="46.9684" lon="7.28705">
        <ele>488.4</ele>
        <time>2021-03-25T11:51:57.355Z</time>
      </trkpt>
      <trkpt lat="46.96846" lon="7.28683">
        <ele>487.7</ele>
        <time>2021-03-25T11:52:00.886Z</time>
      </trkpt>
      <trkpt lat="46.96858" lon="7.28665">
        <ele>487</ele>
        <time>2021-03-25T11:52:04.726Z</time>
      </trkpt>
      <trkpt lat="46.9688" lon="7.2866">
        <ele>486.6</ele>
        <time>2021-03-25T11:52:11.068Z</time>
      </trkpt>
      <trkpt lat="46.96889" lon="7.28655">
        <ele>486.2</ele>
        <time>2021-03-25T11:52:13.205Z</time>
      </trkpt>
      <trkpt lat="46.96892" lon="7.28649">
        <ele>485.7</ele>
        <time>2021-03-25T11:52:14.200Z</time>
      </trkpt>
      <trkpt lat="46.96893" lon="7.28643">
        <ele>485.3</ele>
        <time>2021-03-25T11:52:15.027Z</time>
      </trkpt>
      <trkpt lat="46.96898" lon="7.28554">
        <ele>479.5</ele>
        <time>2021-03-25T11:52:26.982Z</time>
        <extensions>
          <visugpx:TrkExtension xmlns:visugpx="https://www.visugpx.com/editgpx/">
            <visugpx:node>45</visugpx:node>
            </visugpx:TrkExtension>
        </extensions>
      </trkpt>
      <trkpt lat="46.96916" lon="7.28316">
        <ele>501</ele>
        <time>2021-03-25T12:00:43.854Z</time>
        <extensions>
          <visugpx:TrkExtension xmlns:visugpx="https://www.visugpx.com/editgpx/">
            <visugpx:node>46</visugpx:node>
            </visugpx:TrkExtension>
        </extensions>
      </trkpt>
      <trkpt lat="46.96908" lon="7.28316">
        <ele>502.1</ele>
      </trkpt>
      <trkpt lat="46.96909" lon="7.28328">
        <ele>498.7</ele>
        <time>2021-03-25T12:01:21.719Z</time>
      </trkpt>
      <trkpt lat="46.96926" lon="7.28323">
        <ele>496.3</ele>
      </trkpt>
      <trkpt lat="46.9694" lon="7.28329">
        <ele>490.8</ele>
        <time>2021-03-25T12:02:57.772Z</time>
        <extensions>
          <visugpx:TrkExtension xmlns:visugpx="https://www.visugpx.com/editgpx/">
            <visugpx:node>47</visugpx:node>
            </visugpx:TrkExtension>
        </extensions>
      </trkpt>
      <trkpt lat="46.9695" lon="7.28357">
        <ele>483.7</ele>
        <time>2021-03-25T12:03:02.003Z</time>
        <extensions>
          <visugpx:TrkExtension xmlns:visugpx="https://www.visugpx.com/editgpx/">
            <visugpx:node>48</visugpx:node>
            </visugpx:TrkExtension>
        </extensions>
      </trkpt>
      <trkpt lat="46.96958" lon="7.28371">
        <ele>480.1</ele>
        <time>2021-03-25T12:03:40.283Z</time>
      </trkpt>
      <trkpt lat="46.96964" lon="7.28372">
        <ele>478.8</ele>
      </trkpt>
      <trkpt lat="46.96964" lon="7.28384">
        <ele>477.2</ele>
      </trkpt>
      <trkpt lat="46.96967" lon="7.28392">
        <ele>475.8</ele>
      </trkpt>
      <trkpt lat="46.96973" lon="7.28402">
        <ele>473.8</ele>
      </trkpt>
      <trkpt lat="46.97003" lon="7.28413">
        <ele>469.1</ele>
      </trkpt>
      <trkpt lat="46.97012" lon="7.28422">
        <ele>468.4</ele>
        <time>2021-03-25T12:12:43.575Z</time>
      </trkpt>
      <trkpt lat="46.97046" lon="7.28482">
        <ele>466.6</ele>
        <time>2021-03-25T12:12:56.194Z</time>
      </trkpt>
      <trkpt lat="46.97066" lon="7.28508">
        <ele>466.7</ele>
        <time>2021-03-25T12:13:18.573Z</time>
      </trkpt>
      <trkpt lat="46.97106" lon="7.28526">
        <ele>467.9</ele>
        <time>2021-03-25T12:14:04.418Z</time>
      </trkpt>
      <trkpt lat="46.9712" lon="7.28525">
        <ele>468.1</ele>
        <time>2021-03-25T12:14:17.790Z</time>
        <extensions>
          <visugpx:TrkExtension xmlns:visugpx="https://www.visugpx.com/editgpx/">
            <visugpx:node>51</visugpx:node>
            </visugpx:TrkExtension>
        </extensions>
      </trkpt>
      <trkpt lat="46.9714" lon="7.28526">
        <ele>468.5</ele>
        <time>2021-03-25T12:15:20.119Z</time>
      </trkpt>
      <trkpt lat="46.9716" lon="7.2852">
        <ele>468.4</ele>
        <time>2021-03-25T12:16:23.590Z</time>
      </trkpt>
      <trkpt lat="46.97186" lon="7.28507">
        <ele>468.4</ele>
        <time>2021-03-25T12:16:45.868Z</time>
      </trkpt>
      <trkpt lat="46.97206" lon="7.28484">
        <ele>468</ele>
        <time>2021-03-25T12:16:53.368Z</time>
      </trkpt>
      <trkpt lat="46.97244" lon="7.28435">
        <ele>466.9</ele>
        <time>2021-03-25T12:17:07.164Z</time>
        <extensions>
          <visugpx:TrkExtension xmlns:visugpx="https://www.visugpx.com/editgpx/">
            <visugpx:node>52</visugpx:node>
            </visugpx:TrkExtension>
        </extensions>
      </trkpt>
      <trkpt lat="46.9727" lon="7.28397">
        <ele>468.1</ele>
        <time>2021-03-25T12:19:01.812Z</time>
      </trkpt>
      <trkpt lat="46.97297" lon="7.28351">
        <ele>469</ele>
        <time>2021-03-25T12:21:12.222Z</time>
      </trkpt>
      <trkpt lat="46.97303" lon="7.28325">
        <ele>468.7</ele>
        <time>2021-03-25T12:21:17.578Z</time>
        <extensions>
          <visugpx:TrkExtension xmlns:visugpx="https://www.visugpx.com/editgpx/">
            <visugpx:node>53</visugpx:node>
            </visugpx:TrkExtension>
        </extensions>
      </trkpt>
      <trkpt lat="46.97314" lon="7.28306">
        <ele>469.7</ele>
        <time>2021-03-25T12:21:43.094Z</time>
      </trkpt>
      <trkpt lat="46.97338" lon="7.28256">
        <ele>472.3</ele>
        <time>2021-03-25T12:22:47.265Z</time>
      </trkpt>
      <trkpt lat="46.97366" lon="7.28181">
        <ele>470.2</ele>
        <time>2021-03-25T12:23:00.923Z</time>
        <extensions>
          <visugpx:TrkExtension xmlns:visugpx="https://www.visugpx.com/editgpx/">
            <visugpx:node>55</visugpx:node>
            </visugpx:TrkExtension>
        </extensions>
      </trkpt>
      <trkpt lat="46.97383" lon="7.28133">
        <ele>468.1</ele>
        <time>2021-03-25T12:23:08.085Z</time>
        <extensions>
          <visugpx:TrkExtension xmlns:visugpx="https://www.visugpx.com/editgpx/">
            <visugpx:node>56</visugpx:node>
            </visugpx:TrkExtension>
        </extensions>
      </trkpt>
      <trkpt lat="46.97375" lon="7.28108">
        <ele>466.7</ele>
        <time>2021-03-25T12:23:11.781Z</time>
        <extensions>
          <visugpx:TrkExtension xmlns:visugpx="https://www.visugpx.com/editgpx/">
            <visugpx:node>57</visugpx:node>
            </visugpx:TrkExtension>
        </extensions>
      </trkpt>
      <trkpt lat="46.97382" lon="7.281">
        <ele>466.4</ele>
        <time>2021-03-25T12:23:13.905Z</time>
      </trkpt>
      <trkpt lat="46.97385" lon="7.28081">
        <ele>465.6</ele>
        <time>2021-03-25T12:23:16.422Z</time>
        <extensions>
          <visugpx:TrkExtension xmlns:visugpx="https://www.visugpx.com/editgpx/">
            <visugpx:node>58</visugpx:node>
            </visugpx:TrkExtension>
        </extensions>
      </trkpt>
      <trkpt lat="46.97385" lon="7.28051">
        <ele>465.9</ele>
        <time>2021-03-25T12:23:35.543Z</time>
        <extensions>
          <visugpx:TrkExtension xmlns:visugpx="https://www.visugpx.com/editgpx/">
            <visugpx:node>60</visugpx:node>
            </visugpx:TrkExtension>
        </extensions>
      </trkpt>
      <trkpt lat="46.97393" lon="7.28034">
        <ele>466.1</ele>
        <time>2021-03-25T12:23:48.642Z</time>
        <extensions>
          <visugpx:TrkExtension xmlns:visugpx="https://www.visugpx.com/editgpx/">
            <visugpx:node>61</visugpx:node>
            </visugpx:TrkExtension>
        </extensions>
      </trkpt>
      <trkpt lat="46.9741" lon="7.28018">
        <ele>466</ele>
        <time>2021-03-25T12:24:03.829Z</time>
        <extensions>
          <visugpx:TrkExtension xmlns:visugpx="https://www.visugpx.com/editgpx/">
            <visugpx:node>62</visugpx:node>
            </visugpx:TrkExtension>
        </extensions>
      </trkpt>
      <trkpt lat="46.97416" lon="7.27997">
        <ele>466</ele>
        <time>2021-03-25T12:24:16.392Z</time>
        <extensions>
          <visugpx:TrkExtension xmlns:visugpx="https://www.visugpx.com/editgpx/">
            <visugpx:node>63</visugpx:node>
            </visugpx:TrkExtension>
        </extensions>
      </trkpt>
      <trkpt lat="46.97422" lon="7.27961">
        <ele>466.9</ele>
        <time>2021-03-25T12:24:46.733Z</time>
        <extensions>
          <visugpx:TrkExtension xmlns:visugpx="https://www.visugpx.com/editgpx/">
            <visugpx:node>64</visugpx:node>
            </visugpx:TrkExtension>
        </extensions>
      </trkpt>
      <trkpt lat="46.97428" lon="7.27915">
        <ele>467.7</ele>
        <time>2021-03-25T12:25:20.265Z</time>
        <extensions>
          <visugpx:TrkExtension xmlns:visugpx="https://www.visugpx.com/editgpx/">
            <visugpx:node>65</visugpx:node>
            </visugpx:TrkExtension>
        </extensions>
      </trkpt>
      <trkpt lat="46.97433" lon="7.27885">
        <ele>467.8</ele>
        <time>2021-03-25T12:25:38.081Z</time>
      </trkpt>
      <trkpt lat="46.97435" lon="7.27867">
        <ele>467.8</ele>
        <time>2021-03-25T12:25:48.144Z</time>
      </trkpt>
      <trkpt lat="46.97434" lon="7.2783">
        <ele>467.5</ele>
        <time>2021-03-25T12:25:55.910Z</time>
      </trkpt>
      <trkpt lat="46.97433" lon="7.27817">
        <ele>467.2</ele>
        <time>2021-03-25T12:25:58.051Z</time>
        <extensions>
          <visugpx:TrkExtension xmlns:visugpx="https://www.visugpx.com/editgpx/">
            <visugpx:node>66</visugpx:node>
            </visugpx:TrkExtension>
        </extensions>
      </trkpt>
      <trkpt lat="46.97431" lon="7.27786">
        <ele>466.3</ele>
        <time>2021-03-25T12:26:02.731Z</time>
      </trkpt>
      <trkpt lat="46.9742" lon="7.27725">
        <ele>464.8</ele>
        <time>2021-03-25T12:26:12.928Z</time>
      </trkpt>
      <trkpt lat="46.97397" lon="7.27636">
        <ele>465.4</ele>
        <time>2021-03-25T12:27:10.299Z</time>
        <extensions>
          <visugpx:TrkExtension xmlns:visugpx="https://www.visugpx.com/editgpx/">
            <visugpx:node>67</visugpx:node>
            </visugpx:TrkExtension>
        </extensions>
      </trkpt>
      <trkpt lat="46.97395" lon="7.2763">
        <ele>465.5</ele>
        <time>2021-03-25T12:27:14.911Z</time>
      </trkpt>
      <trkpt lat="46.97387" lon="7.27609">
        <ele>465.8</ele>
        <time>2021-03-25T12:27:30.852Z</time>
      </trkpt>
      <trkpt lat="46.97376" lon="7.27585">
        <ele>466</ele>
        <time>2021-03-25T12:27:48.440Z</time>
      </trkpt>
      <trkpt lat="46.97358" lon="7.27554">
        <ele>466.3</ele>
        <time>2021-03-25T12:28:13.368Z</time>
      </trkpt>
      <trkpt lat="46.97309" lon="7.27474">
        <ele>467.2</ele>
        <time>2021-03-25T12:29:20.201Z</time>
      </trkpt>
      <trkpt lat="46.97306" lon="7.27471">
        <ele>467.3</ele>
        <time>2021-03-25T12:29:24.129Z</time>
      </trkpt>
      <trkpt lat="46.97301" lon="7.27464">
        <ele>467.4</ele>
        <time>2021-03-25T12:29:30.575Z</time>
      </trkpt>
      <trkpt lat="46.97258" lon="7.27388">
        <ele>467.9</ele>
        <time>2021-03-25T12:30:29.030Z</time>
      </trkpt>
      <trkpt lat="46.97224" lon="7.27334">
        <ele>465.7</ele>
        <time>2021-03-25T12:30:39.921Z</time>
        <extensions>
          <visugpx:TrkExtension xmlns:visugpx="https://www.visugpx.com/editgpx/">
            <visugpx:node>68</visugpx:node>
            </visugpx:TrkExtension>
        </extensions>
      </trkpt>
      <trkpt lat="46.97152" lon="7.2722">
        <ele>466.7</ele>
        <time>2021-03-25T12:32:13.750Z</time>
      </trkpt>
      <trkpt lat="46.97141" lon="7.27206">
        <ele>466.9</ele>
        <time>2021-03-25T12:32:27.227Z</time>
      </trkpt>
      <trkpt lat="46.97135" lon="7.27196">
        <ele>466.9</ele>
        <time>2021-03-25T12:32:34.575Z</time>
      </trkpt>
      <trkpt lat="46.97123" lon="7.27177">
        <ele>466.9</ele>
        <time>2021-03-25T12:32:48.862Z</time>
      </trkpt>
      <trkpt lat="46.97112" lon="7.27159">
        <ele>467.4</ele>
        <time>2021-03-25T12:33:07.325Z</time>
      </trkpt>
      <trkpt lat="46.971" lon="7.27141">
        <ele>468.5</ele>
        <time>2021-03-25T12:33:34.071Z</time>
      </trkpt>
      <trkpt lat="46.97085" lon="7.27118">
        <ele>469.6</ele>
        <time>2021-03-25T12:34:04.906Z</time>
      </trkpt>
      <trkpt lat="46.97061" lon="7.27079">
        <ele>470.5</ele>
        <time>2021-03-25T12:34:42.546Z</time>
      </trkpt>
      <trkpt lat="46.97046" lon="7.27083">
        <ele>469.8</ele>
        <time>2021-03-25T12:34:45.797Z</time>
      </trkpt>
      <trkpt lat="46.9703" lon="7.27088">
        <ele>468.7</ele>
        <time>2021-03-25T12:34:49.007Z</time>
        <extensions>
          <visugpx:TrkExtension xmlns:visugpx="https://www.visugpx.com/editgpx/">
            <visugpx:node>69</visugpx:node>
            </visugpx:TrkExtension>
        </extensions>
      </trkpt>
      <trkpt lat="46.96985" lon="7.27103">
        <ele>467.8</ele>
        <time>2021-03-25T12:35:01.915Z</time>
      </trkpt>
      <trkpt lat="46.96978" lon="7.27113">
        <ele>468.4</ele>
        <time>2021-03-25T12:35:16.852Z</time>
      </trkpt>
      <trkpt lat="46.9695" lon="7.27153">
        <ele>471.5</ele>
        <time>2021-03-25T12:36:25.273Z</time>
      </trkpt>
      <trkpt lat="46.96948" lon="7.27158">
        <ele>471.9</ele>
        <time>2021-03-25T12:36:33.684Z</time>
        <extensions>
          <visugpx:TrkExtension xmlns:visugpx="https://www.visugpx.com/editgpx/">
            <visugpx:node>70</visugpx:node>
            </visugpx:TrkExtension>
        </extensions>
      </trkpt>
      <trkpt lat="46.9694" lon="7.27179">
        <ele>473.1</ele>
        <time>2021-03-25T12:37:01.034Z</time>
      </trkpt>
      <trkpt lat="46.96937" lon="7.27202">
        <ele>473.4</ele>
        <time>2021-03-25T12:37:16.641Z</time>
      </trkpt>
      <trkpt lat="46.96927" lon="7.27159">
        <ele>473.6</ele>
        <time>2021-03-25T12:37:43.286Z</time>
      </trkpt>
      <trkpt lat="46.96903" lon="7.27141">
        <ele>475.8</ele>
        <time>2021-03-25T12:38:31.365Z</time>
      </trkpt>
      <trkpt lat="46.96885" lon="7.2713">
        <ele>478.4</ele>
        <time>2021-03-25T12:39:32.097Z</time>
        <extensions>
          <visugpx:TrkExtension xmlns:visugpx="https://www.visugpx.com/editgpx/">
            <visugpx:node>72</visugpx:node>
            </visugpx:TrkExtension>
        </extensions>
      </trkpt>
      <trkpt lat="46.96872" lon="7.27115">
        <ele>479.7</ele>
        <extensions>
          <visugpx:TrkExtension xmlns:visugpx="https://www.visugpx.com/editgpx/">
            <visugpx:node>73</visugpx:node>
            </visugpx:TrkExtension>
        </extensions>
      </trkpt>
      <trkpt lat="46.96795" lon="7.26806">
        <ele>489.3</ele>
        <extensions>
          <visugpx:TrkExtension xmlns:visugpx="https://www.visugpx.com/editgpx/">
            <visugpx:node>77</visugpx:node>
            </visugpx:TrkExtension>
        </extensions>
      </trkpt>
      <trkpt lat="46.96788" lon="7.2679">
        <ele>491</ele>
      </trkpt>
      <trkpt lat="46.96791" lon="7.26774">
        <ele>490.9</ele>
        <extensions>
          <visugpx:TrkExtension xmlns:visugpx="https://www.visugpx.com/editgpx/">
            <visugpx:node>83</visugpx:node>
            </visugpx:TrkExtension>
        </extensions>
      </trkpt>
      <trkpt lat="46.96795" lon="7.26768">
        <ele>490.1</ele>
      </trkpt>
      <trkpt lat="46.96799" lon="7.2675">
        <ele>489.7</ele>
        <time>2021-03-25T12:49:24.021Z</time>
      </trkpt>
      <trkpt lat="46.96803" lon="7.2675">
        <ele>488.6</ele>
        <time>2021-03-25T12:49:24.806Z</time>
        <extensions>
          <visugpx:TrkExtension xmlns:visugpx="https://www.visugpx.com/editgpx/">
            <visugpx:node>84</visugpx:node>
            </visugpx:TrkExtension>
        </extensions>
      </trkpt>
      <trkpt lat="46.96805" lon="7.26749">
        <ele>488.2</ele>
        <time>2021-03-25T12:49:25.220Z</time>
      </trkpt>
      <trkpt lat="46.96806" lon="7.26754">
        <ele>487.8</ele>
        <time>2021-03-25T12:49:25.918Z</time>
      </trkpt>
      <trkpt lat="46.9681" lon="7.26758">
        <ele>486.8</ele>
        <time>2021-03-25T12:49:26.868Z</time>
      </trkpt>
      <trkpt lat="46.96815" lon="7.26753">
        <ele>485.6</ele>
        <time>2021-03-25T12:49:28.055Z</time>
      </trkpt>
      <trkpt lat="46.96817" lon="7.26748">
        <ele>485.2</ele>
        <time>2021-03-25T12:49:28.831Z</time>
        <extensions>
          <visugpx:TrkExtension xmlns:visugpx="https://www.visugpx.com/editgpx/">
            <visugpx:node>85</visugpx:node>
            </visugpx:TrkExtension>
        </extensions>
      </trkpt>
      <trkpt lat="46.96826" lon="7.26726">
        <ele>483.7</ele>
        <time>2021-03-25T12:49:32.265Z</time>
      </trkpt>
      <trkpt lat="46.96832" lon="7.2669">
        <ele>482.9</ele>
        <time>2021-03-25T12:49:38.453Z</time>
      </trkpt>
      <trkpt lat="46.96839" lon="7.26665">
        <ele>482.2</ele>
        <time>2021-03-25T12:49:42.689Z</time>
        <extensions>
          <visugpx:TrkExtension xmlns:visugpx="https://www.visugpx.com/editgpx/">
            <visugpx:node>86</visugpx:node>
            </visugpx:TrkExtension>
        </extensions>
      </trkpt>
      <trkpt lat="46.9684" lon="7.26662">
        <ele>482.4</ele>
        <time>2021-03-25T12:49:46.970Z</time>
      </trkpt>
      <trkpt lat="46.96853" lon="7.26642">
        <ele>482.7</ele>
        <time>2021-03-25T12:50:04.815Z</time>
      </trkpt>
      <trkpt lat="46.96885" lon="7.26604">
        <ele>480.1</ele>
        <time>2021-03-25T12:50:12.421Z</time>
      </trkpt>
      <trkpt lat="46.96906" lon="7.26577">
        <ele>479</ele>
        <time>2021-03-25T12:50:18.752Z</time>
      </trkpt>
      <trkpt lat="46.96926" lon="7.26563">
        <ele>479.9</ele>
        <time>2021-03-25T12:50:47.292Z</time>
        <extensions>
          <visugpx:TrkExtension xmlns:visugpx="https://www.visugpx.com/editgpx/">
            <visugpx:node>87</visugpx:node>
            </visugpx:TrkExtension>
        </extensions>
      </trkpt>
      <trkpt lat="46.96937" lon="7.26551">
        <ele>481.7</ele>
        <time>2021-03-25T12:51:28.765Z</time>
      </trkpt>
      <trkpt lat="46.96972" lon="7.2657">
        <ele>471.6</ele>
        <time>2021-03-25T12:51:36.087Z</time>
      </trkpt>
      <trkpt lat="46.96977" lon="7.26555">
        <ele>473.2</ele>
        <time>2021-03-25T12:52:11.621Z</time>
      </trkpt>
      <trkpt lat="46.96986" lon="7.26507">
        <ele>477.4</ele>
        <time>2021-03-25T12:53:44.447Z</time>
      </trkpt>
      <trkpt lat="46.96991" lon="7.26487">
        <ele>478.5</ele>
        <time>2021-03-25T12:54:09.158Z</time>
        <extensions>
          <visugpx:TrkExtension xmlns:visugpx="https://www.visugpx.com/editgpx/">
            <visugpx:node>88</visugpx:node>
            </visugpx:TrkExtension>
        </extensions>
      </trkpt>
      <trkpt lat="46.97" lon="7.2645">
        <ele>480.8</ele>
        <time>2021-03-25T12:54:58.680Z</time>
      </trkpt>
      <trkpt lat="46.97027" lon="7.26379">
        <ele>486.7</ele>
        <time>2021-03-25T12:57:03.051Z</time>
      </trkpt>
      <trkpt lat="46.97053" lon="7.2633">
        <ele>485.6</ele>
        <time>2021-03-25T12:57:14.059Z</time>
      </trkpt>
      <trkpt lat="46.97083" lon="7.26286">
        <ele>483.6</ele>
        <time>2021-03-25T12:57:23.013Z</time>
      </trkpt>
      <trkpt lat="46.97214" lon="7.26136">
        <ele>477.8</ele>
        <time>2021-03-25T12:58:02.370Z</time>
        <extensions>
          <visugpx:TrkExtension xmlns:visugpx="https://www.visugpx.com/editgpx/">
            <visugpx:node>89</visugpx:node>
            </visugpx:TrkExtension>
        </extensions>
      </trkpt>
      <trkpt lat="46.97282" lon="7.26073">
        <ele>467.7</ele>
        <time>2021-03-25T12:58:18.152Z</time>
      </trkpt>
      <trkpt lat="46.97304" lon="7.26046">
        <ele>466.9</ele>
        <time>2021-03-25T12:58:25.457Z</time>
      </trkpt>
      <trkpt lat="46.97327" lon="7.26011">
        <ele>464.2</ele>
        <time>2021-03-25T12:58:31.961Z</time>
      </trkpt>
      <trkpt lat="46.97338" lon="7.25981">
        <ele>464</ele>
        <time>2021-03-25T12:58:39.420Z</time>
      </trkpt>
      <trkpt lat="46.97348" lon="7.25968">
        <ele>464.7</ele>
        <time>2021-03-25T12:58:58.620Z</time>
      </trkpt>
      <trkpt lat="46.97381" lon="7.25895">
        <ele>467.8</ele>
        <time>2021-03-25T13:00:24.167Z</time>
      </trkpt>
      <trkpt lat="46.97402" lon="7.2586">
        <ele>468.3</ele>
        <time>2021-03-25T13:00:54.213Z</time>
      </trkpt>
      <trkpt lat="46.97412" lon="7.25824">
        <ele>467.5</ele>
        <time>2021-03-25T13:01:00.802Z</time>
      </trkpt>
      <trkpt lat="46.97421" lon="7.25759">
        <ele>464.3</ele>
        <time>2021-03-25T13:01:09.680Z</time>
      </trkpt>
      <trkpt lat="46.97432" lon="7.2571">
        <ele>463.1</ele>
        <time>2021-03-25T13:01:18.080Z</time>
      </trkpt>
      <trkpt lat="46.97456" lon="7.25646">
        <ele>462.8</ele>
        <time>2021-03-25T13:01:54.974Z</time>
        <extensions>
          <visugpx:TrkExtension xmlns:visugpx="https://www.visugpx.com/editgpx/">
            <visugpx:node>90</visugpx:node>
            </visugpx:TrkExtension>
        </extensions>
      </trkpt>
      <trkpt lat="46.97474" lon="7.25598">
        <ele>462.8</ele>
        <time>2021-03-25T13:02:25.197Z</time>
      </trkpt>
      <trkpt lat="46.97498" lon="7.25554">
        <ele>462.6</ele>
        <time>2021-03-25T13:02:53.986Z</time>
      </trkpt>
      <trkpt lat="46.97508" lon="7.25535">
        <ele>462.3</ele>
        <time>2021-03-25T13:02:58.630Z</time>
      </trkpt>
      <trkpt lat="46.97524" lon="7.25509">
        <ele>461.8</ele>
        <time>2021-03-25T13:03:05.202Z</time>
      </trkpt>
      <trkpt lat="46.97544" lon="7.25489">
        <ele>461.6</ele>
        <time>2021-03-25T13:03:13.010Z</time>
      </trkpt>
      <trkpt lat="46.97559" lon="7.25479">
        <ele>461.5</ele>
        <time>2021-03-25T13:03:25.203Z</time>
      </trkpt>
      <trkpt lat="46.97568" lon="7.25469">
        <ele>461.6</ele>
        <time>2021-03-25T13:03:35.143Z</time>
      </trkpt>
      <trkpt lat="46.97619" lon="7.25447">
        <ele>461.2</ele>
        <time>2021-03-25T13:03:52.460Z</time>
      </trkpt>
      <trkpt lat="46.97633" lon="7.25442">
        <ele>461.1</ele>
        <time>2021-03-25T13:04:02.993Z</time>
      </trkpt>
      <trkpt lat="46.97638" lon="7.25442">
        <ele>461</ele>
        <time>2021-03-25T13:04:04.384Z</time>
        <extensions>
          <visugpx:TrkExtension xmlns:visugpx="https://www.visugpx.com/editgpx/">
            <visugpx:node>91</visugpx:node>
            </visugpx:TrkExtension>
        </extensions>
      </trkpt>
      <trkpt lat="46.97648" lon="7.25441">
        <ele>460.9</ele>
        <time>2021-03-25T13:04:07.542Z</time>
      </trkpt>
      <trkpt lat="46.97731" lon="7.25467">
        <ele>463.5</ele>
        <time>2021-03-25T13:05:42.954Z</time>
      </trkpt>
      <trkpt lat="46.97747" lon="7.25466">
        <ele>464.3</ele>
        <time>2021-03-25T13:06:05.593Z</time>
      </trkpt>
      <trkpt lat="46.97758" lon="7.25461">
        <ele>464.7</ele>
        <time>2021-03-25T13:06:19.252Z</time>
      </trkpt>
      <trkpt lat="46.97774" lon="7.25446">
        <ele>465.1</ele>
        <time>2021-03-25T13:06:38.284Z</time>
      </trkpt>
      <trkpt lat="46.97778" lon="7.25429">
        <ele>465.3</ele>
        <time>2021-03-25T13:06:49.948Z</time>
      </trkpt>
      <trkpt lat="46.97776" lon="7.25402">
        <ele>465.4</ele>
        <time>2021-03-25T13:07:05.712Z</time>
      </trkpt>
      <trkpt lat="46.97768" lon="7.25385">
        <ele>465.4</ele>
        <time>2021-03-25T13:07:17.107Z</time>
      </trkpt>
      <trkpt lat="46.97774" lon="7.2538">
        <ele>465.5</ele>
        <time>2021-03-25T13:07:23.543Z</time>
      </trkpt>
      <trkpt lat="46.97845" lon="7.25319">
        <ele>464.1</ele>
        <time>2021-03-25T13:07:47.260Z</time>
      </trkpt>
      <trkpt lat="46.97843" lon="7.25334">
        <ele>464.5</ele>
        <time>2021-03-25T13:08:00.261Z</time>
      </trkpt>
      <trkpt lat="46.97871" lon="7.25414">
        <ele>463.7</ele>
        <time>2021-03-25T13:08:18.836Z</time>
      </trkpt>
      <trkpt lat="46.97877" lon="7.25463">
        <ele>464</ele>
        <time>2021-03-25T13:08:48.722Z</time>
        <extensions>
          <visugpx:TrkExtension xmlns:visugpx="https://www.visugpx.com/editgpx/">
            <visugpx:node>92</visugpx:node>
            </visugpx:TrkExtension>
        </extensions>
      </trkpt>
      <trkpt lat="46.97891" lon="7.25524">
        <ele>464</ele>
        <time>2021-03-25T13:09:24.233Z</time>
      </trkpt>
      <trkpt lat="46.97936" lon="7.25902">
        <ele>465.3</ele>
        <time>2021-03-25T13:13:06.039Z</time>
      </trkpt>
      <trkpt lat="46.97942" lon="7.25967">
        <ele>467.9</ele>
        <time>2021-03-25T13:14:12.867Z</time>
      </trkpt>
      <trkpt lat="46.97948" lon="7.25999">
        <ele>469.4</ele>
        <time>2021-03-25T13:14:48.699Z</time>
      </trkpt>
      <trkpt lat="46.97951" lon="7.26011">
        <ele>469.8</ele>
        <time>2021-03-25T13:15:00.705Z</time>
      </trkpt>
      <trkpt lat="46.9795" lon="7.26031">
        <ele>470.1</ele>
        <time>2021-03-25T13:15:14.550Z</time>
      </trkpt>
      <trkpt lat="46.97959" lon="7.26065">
        <ele>470.8</ele>
        <time>2021-03-25T13:15:41.658Z</time>
      </trkpt>
      <trkpt lat="46.97979" lon="7.26117">
        <ele>471.3</ele>
        <time>2021-03-25T13:16:18.768Z</time>
      </trkpt>
      <trkpt lat="46.97989" lon="7.26134">
        <ele>470.4</ele>
        <time>2021-03-25T13:16:21.695Z</time>
        <extensions>
          <visugpx:TrkExtension xmlns:visugpx="https://www.visugpx.com/editgpx/">
            <visugpx:node>93</visugpx:node>
            </visugpx:TrkExtension>
        </extensions>
      </trkpt>
      <trkpt lat="46.98002" lon="7.26155">
        <ele>468.4</ele>
        <time>2021-03-25T13:16:25.490Z</time>
      </trkpt>
      <trkpt lat="46.98016" lon="7.26162">
        <ele>467.7</ele>
        <time>2021-03-25T13:16:28.605Z</time>
      </trkpt>
      <trkpt lat="46.98021" lon="7.26145">
        <ele>468</ele>
        <time>2021-03-25T13:16:41.660Z</time>
      </trkpt>
      <trkpt lat="46.98028" lon="7.26139">
        <ele>467.9</ele>
        <time>2021-03-25T13:16:44.138Z</time>
      </trkpt>
      <trkpt lat="46.98046" lon="7.26161">
        <ele>466.9</ele>
        <time>2021-03-25T13:16:49.286Z</time>
      </trkpt>
      <trkpt lat="46.98091" lon="7.26191">
        <ele>468.5</ele>
        <time>2021-03-25T13:17:46.112Z</time>
      </trkpt>
      <trkpt lat="46.98125" lon="7.26185">
        <ele>468.5</ele>
        <time>2021-03-25T13:18:13.807Z</time>
      </trkpt>
      <trkpt lat="46.98131" lon="7.26183">
        <ele>468.5</ele>
        <time>2021-03-25T13:18:18.784Z</time>
        <extensions>
          <visugpx:TrkExtension xmlns:visugpx="https://www.visugpx.com/editgpx/">
            <visugpx:node>94</visugpx:node>
            </visugpx:TrkExtension>
        </extensions>
      </trkpt>
      <trkpt lat="46.98187" lon="7.26155">
        <ele>466.7</ele>
        <time>2021-03-25T13:18:33.445Z</time>
      </trkpt>
      <trkpt lat="46.98227" lon="7.26127">
        <ele>465.5</ele>
        <time>2021-03-25T13:20:52.603Z</time>
      </trkpt>
      <trkpt lat="46.98322" lon="7.26022">
        <ele>468.3</ele>
        <time>2021-03-25T13:27:02.799Z</time>
      </trkpt>
      <trkpt lat="46.9833" lon="7.26003">
        <ele>468</ele>
        <time>2021-03-25T13:27:07.050Z</time>
      </trkpt>
      <trkpt lat="46.98372" lon="7.2596">
        <ele>466.3</ele>
        <time>2021-03-25T13:27:19.389Z</time>
      </trkpt>
      <trkpt lat="46.98433" lon="7.25897">
        <ele>464.2</ele>
        <time>2021-03-25T13:27:38.330Z</time>
      </trkpt>
      <trkpt lat="46.98468" lon="7.2583">
        <ele>464.1</ele>
        <time>2021-03-25T13:28:23.680Z</time>
      </trkpt>
      <trkpt lat="46.9848" lon="7.25774">
        <ele>462.6</ele>
        <time>2021-03-25T13:28:32.922Z</time>
      </trkpt>
      <trkpt lat="46.98488" lon="7.25602">
        <ele>464.5</ele>
        <time>2021-03-25T13:30:24.554Z</time>
      </trkpt>
      <trkpt lat="46.98509" lon="7.25493">
        <ele>464.1</ele>
        <time>2021-03-25T13:31:22.450Z</time>
        <extensions>
          <visugpx:TrkExtension xmlns:visugpx="https://www.visugpx.com/editgpx/">
            <visugpx:node>95</visugpx:node>
            </visugpx:TrkExtension>
        </extensions>
      </trkpt>
      <trkpt lat="46.98535" lon="7.25374">
        <ele>463.7</ele>
        <time>2021-03-25T13:32:26.763Z</time>
      </trkpt>
      <trkpt lat="46.98548" lon="7.25314">
        <ele>464.2</ele>
        <time>2021-03-25T13:33:05.640Z</time>
      </trkpt>
      <trkpt lat="46.98554" lon="7.25293">
        <ele>465.1</ele>
        <time>2021-03-25T13:33:28.809Z</time>
      </trkpt>
      <trkpt lat="46.98557" lon="7.25259">
        <ele>466.4</ele>
        <time>2021-03-25T13:34:03.137Z</time>
      </trkpt>
      <trkpt lat="46.98568" lon="7.25256">
        <ele>467</ele>
        <time>2021-03-25T13:34:19.344Z</time>
      </trkpt>
      <trkpt lat="46.98578" lon="7.25249">
        <ele>467.8</ele>
        <time>2021-03-25T13:34:37.681Z</time>
      </trkpt>
      <trkpt lat="46.98585" lon="7.25225">
        <ele>470.2</ele>
        <time>2021-03-25T13:35:33.224Z</time>
      </trkpt>
      <trkpt lat="46.98595" lon="7.2518">
        <ele>474.8</ele>
        <time>2021-03-25T13:37:13.934Z</time>
      </trkpt>
      <trkpt lat="46.98601" lon="7.25168">
        <ele>476.6</ele>
        <time>2021-03-25T13:37:45.594Z</time>
      </trkpt>
      <trkpt lat="46.98606" lon="7.2516">
        <ele>477.7</ele>
        <time>2021-03-25T13:38:08.682Z</time>
      </trkpt>
      <trkpt lat="46.98653" lon="7.25109">
        <ele>486.4</ele>
        <time>2021-03-25T13:41:11.088Z</time>
      </trkpt>
      <trkpt lat="46.98667" lon="7.25098">
        <ele>488.8</ele>
        <time>2021-03-25T13:42:00.636Z</time>
      </trkpt>
      <trkpt lat="46.98684" lon="7.25079">
        <ele>493.4</ele>
        <time>2021-03-25T13:43:07.319Z</time>
      </trkpt>
      <trkpt lat="46.98704" lon="7.25067">
        <ele>498.6</ele>
        <time>2021-03-25T13:44:14.730Z</time>
      </trkpt>
      <trkpt lat="46.98746" lon="7.25078">
        <ele>503.4</ele>
        <time>2021-03-25T13:45:57.024Z</time>
      </trkpt>
      <trkpt lat="46.9879" lon="7.25083">
        <ele>503.5</ele>
        <time>2021-03-25T13:46:33.614Z</time>
      </trkpt>
      <trkpt lat="46.988" lon="7.25079">
        <ele>504.4</ele>
        <time>2021-03-25T13:46:52.933Z</time>
      </trkpt>
      <trkpt lat="46.98811" lon="7.25057">
        <ele>508.6</ele>
        <time>2021-03-25T13:47:50.975Z</time>
      </trkpt>
      <trkpt lat="46.98812" lon="7.25036">
        <ele>512.4</ele>
        <time>2021-03-25T13:48:35.769Z</time>
      </trkpt>
      <trkpt lat="46.98805" lon="7.24995">
        <ele>519</ele>
        <time>2021-03-25T13:50:05.910Z</time>
      </trkpt>
      <trkpt lat="46.98789" lon="7.24925">
        <ele>521.6</ele>
        <time>2021-03-25T13:51:17.845Z</time>
      </trkpt>
      <trkpt lat="46.9877" lon="7.24877">
        <ele>522.1</ele>
        <time>2021-03-25T13:51:52.674Z</time>
      </trkpt>
      <trkpt lat="46.98727" lon="7.24811">
        <ele>520.7</ele>
        <time>2021-03-25T13:52:09.496Z</time>
      </trkpt>
      <trkpt lat="46.98713" lon="7.24793">
        <ele>520</ele>
        <time>2021-03-25T13:52:13.789Z</time>
      </trkpt>
      <trkpt lat="46.98703" lon="7.24786">
        <ele>520.1</ele>
        <time>2021-03-25T13:52:23.558Z</time>
      </trkpt>
      <trkpt lat="46.98671" lon="7.24786">
        <ele>522.6</ele>
        <time>2021-03-25T13:53:19.032Z</time>
      </trkpt>
      <trkpt lat="46.9866" lon="7.24781">
        <ele>524</ele>
        <time>2021-03-25T13:53:49.695Z</time>
      </trkpt>
      <trkpt lat="46.98649" lon="7.2477">
        <ele>525.5</ele>
        <time>2021-03-25T13:54:21.636Z</time>
      </trkpt>
      <trkpt lat="46.98645" lon="7.24763">
        <ele>525.8</ele>
        <time>2021-03-25T13:54:30.340Z</time>
        <extensions>
          <visugpx:TrkExtension xmlns:visugpx="https://www.visugpx.com/editgpx/">
            <visugpx:node>96</visugpx:node>
            </visugpx:TrkExtension>
        </extensions>
      </trkpt>
      <trkpt lat="46.98626" lon="7.24728">
        <ele>526.6</ele>
        <time>2021-03-25T13:55:02.815Z</time>
      </trkpt>
      <trkpt lat="46.9861" lon="7.24688">
        <ele>524.2</ele>
        <time>2021-03-25T13:55:09.021Z</time>
      </trkpt>
      <trkpt lat="46.9861" lon="7.24672">
        <ele>521.9</ele>
        <time>2021-03-25T13:55:11.162Z</time>
      </trkpt>
      <trkpt lat="46.98616" lon="7.24656">
        <ele>519.8</ele>
        <time>2021-03-25T13:55:13.605Z</time>
      </trkpt>
      <trkpt lat="46.98627" lon="7.24637">
        <ele>517.9</ele>
        <time>2021-03-25T13:55:16.940Z</time>
      </trkpt>
      <trkpt lat="46.9863" lon="7.24629">
        <ele>517.4</ele>
        <time>2021-03-25T13:55:18.162Z</time>
      </trkpt>
      <trkpt lat="46.98632" lon="7.24617">
        <ele>516.8</ele>
        <time>2021-03-25T13:55:19.815Z</time>
      </trkpt>
      <trkpt lat="46.98632" lon="7.24612">
        <ele>516.6</ele>
        <time>2021-03-25T13:55:20.468Z</time>
        <extensions>
          <visugpx:TrkExtension xmlns:visugpx="https://www.visugpx.com/editgpx/">
            <visugpx:node>99</visugpx:node>
            </visugpx:TrkExtension>
        </extensions>
      </trkpt>
      <trkpt lat="46.98632" lon="7.24605">
        <ele>516.3</ele>
        <time>2021-03-25T13:55:21.352Z</time>
      </trkpt>
      <trkpt lat="46.98631" lon="7.24581">
        <ele>515.5</ele>
        <time>2021-03-25T13:55:24.762Z</time>
      </trkpt>
      <trkpt lat="46.9863" lon="7.24558">
        <ele>516.4</ele>
        <time>2021-03-25T13:55:48.102Z</time>
      </trkpt>
      <trkpt lat="46.98626" lon="7.24512">
        <ele>518.1</ele>
        <time>2021-03-25T13:57:26.026Z</time>
      </trkpt>
      <trkpt lat="46.98653" lon="7.24484">
        <ele>519.7</ele>
        <time>2021-03-25T13:59:09.928Z</time>
      </trkpt>
      <trkpt lat="46.98675" lon="7.24434">
        <ele>523.7</ele>
        <time>2021-03-25T14:01:16.887Z</time>
      </trkpt>
      <trkpt lat="46.98655" lon="7.24372">
        <ele>524.7</ele>
        <time>2021-03-25T14:03:43.924Z</time>
      </trkpt>
      <trkpt lat="46.98634" lon="7.24335">
        <ele>524.2</ele>
        <time>2021-03-25T14:05:26.087Z</time>
      </trkpt>
      <trkpt lat="46.98609" lon="7.24301">
        <ele>524.5</ele>
        <time>2021-03-25T14:07:13.517Z</time>
      </trkpt>
      <trkpt lat="46.98583" lon="7.24248">
        <ele>524.1</ele>
        <time>2021-03-25T14:09:30.825Z</time>
      </trkpt>
      <trkpt lat="46.98542" lon="7.24165">
        <ele>524.6</ele>
        <time>2021-03-25T14:10:31.323Z</time>
      </trkpt>
      <trkpt lat="46.98508" lon="7.24077">
        <ele>523.4</ele>
        <time>2021-03-25T14:10:51.161Z</time>
      </trkpt>
    </trkseg>
  </trk>
</gpx>